<?xml version="1.0" encoding="UTF-8" standalone="no" ?>
<gpx xmlns="http://www.topografix.com/GPX/1/1" creator="MapSource 6.11.6" version="1.1" xmlns:xsi="http://www.w3.org/2001/XMLSchema-instance" xsi:schemaLocation="http://www.topografix.com/GPX/1/1 http://www.topografix.com/GPX/1/1/gpx.xsd">

  <metadata>
    <link href="http://www.garmin.com">
      <text>Garmin International</text>
    </link>
    <time>2009-07-19T15:05:56Z</time>
    <bounds maxlat="50.792362" maxlon="6.389902" minlat="50.763770" minlon="6.347040"/>
  </metadata>

  <trk>
    <name>Rennweg im Hürtgenwald - Laufenburger Wald - Meroder Wald</name>
    <extensions>
      <gpxx:TrackExtension xmlns:gpxx="http://www.garmin.com/xmlschemas/GpxExtensions/v3" xmlns:xsi="http://www.w3.org/2001/XMLSchema-instance" xsi:schemaLocation="http://www.garmin.com/xmlschemas/GpxExtensions/v3 http://www.garmin.com/xmlschemas/GpxExtensions/v3/GpxExtensionsv3.xsd">
        <gpxx:DisplayColor>White</gpxx:DisplayColor>
      </gpxx:TrackExtension>
    </extensions>
    <trkseg>
      <trkpt lat="50.763853" lon="6.359815">
        <ele>306.800000</ele>
        <time>2009-07-19T17:04:05Z</time>
      </trkpt>
      <trkpt lat="50.763860" lon="6.359817">
        <ele>306.800000</ele>
        <time>2009-07-19T17:04:05Z</time>
      </trkpt>
      <trkpt lat="50.763853" lon="6.359817">
        <ele>307.800000</ele>
        <time>2009-07-19T17:04:06Z</time>
      </trkpt>
      <trkpt lat="50.763818" lon="6.359872">
        <ele>308.200000</ele>
        <time>2009-07-19T17:04:10Z</time>
      </trkpt>
      <trkpt lat="50.763800" lon="6.359873">
        <ele>308.700000</ele>
        <time>2009-07-19T17:04:11Z</time>
      </trkpt>
      <trkpt lat="50.763787" lon="6.359943">
        <ele>308.700000</ele>
        <time>2009-07-19T17:04:15Z</time>
      </trkpt>
      <trkpt lat="50.763807" lon="6.359935">
        <ele>308.200000</ele>
        <time>2009-07-19T17:04:17Z</time>
      </trkpt>
      <trkpt lat="50.763803" lon="6.359945">
        <ele>308.700000</ele>
        <time>2009-07-19T17:04:18Z</time>
      </trkpt>
      <trkpt lat="50.763770" lon="6.359977">
        <ele>308.700000</ele>
        <time>2009-07-19T17:04:21Z</time>
      </trkpt>
      <trkpt lat="50.763797" lon="6.359990">
        <ele>312.100000</ele>
        <time>2009-07-19T17:04:24Z</time>
      </trkpt>
      <trkpt lat="50.763788" lon="6.359983">
        <ele>308.700000</ele>
        <time>2009-07-19T17:04:25Z</time>
      </trkpt>
      <trkpt lat="50.763800" lon="6.359978">
        <ele>304.400000</ele>
        <time>2009-07-19T17:04:26Z</time>
      </trkpt>
      <trkpt lat="50.763807" lon="6.359980">
        <ele>306.800000</ele>
        <time>2009-07-19T17:04:26Z</time>
      </trkpt>
      <trkpt lat="50.763832" lon="6.359968">
        <ele>315.500000</ele>
        <time>2009-07-19T17:04:28Z</time>
      </trkpt>
      <trkpt lat="50.763838" lon="6.359963">
        <ele>305.800000</ele>
        <time>2009-07-19T17:04:29Z</time>
      </trkpt>
      <trkpt lat="50.763845" lon="6.359957">
        <ele>312.100000</ele>
        <time>2009-07-19T17:04:30Z</time>
      </trkpt>
      <trkpt lat="50.763852" lon="6.359950">
        <ele>307.300000</ele>
        <time>2009-07-19T17:04:30Z</time>
      </trkpt>
      <trkpt lat="50.763957" lon="6.359950">
        <ele>303.400000</ele>
        <time>2009-07-19T17:04:39Z</time>
      </trkpt>
      <trkpt lat="50.763975" lon="6.359948">
        <ele>321.200000</ele>
        <time>2009-07-19T17:04:41Z</time>
      </trkpt>
      <trkpt lat="50.763965" lon="6.359947">
        <ele>310.200000</ele>
        <time>2009-07-19T17:04:42Z</time>
      </trkpt>
      <trkpt lat="50.763863" lon="6.359913">
        <ele>308.700000</ele>
        <time>2009-07-19T17:04:51Z</time>
      </trkpt>
      <trkpt lat="50.764057" lon="6.359697">
        <ele>306.300000</ele>
        <time>2009-07-19T17:05:11Z</time>
      </trkpt>
      <trkpt lat="50.764230" lon="6.359615">
        <ele>304.900000</ele>
        <time>2009-07-19T17:05:27Z</time>
      </trkpt>
      <trkpt lat="50.764397" lon="6.359572">
        <ele>303.000000</ele>
        <time>2009-07-19T17:05:41Z</time>
      </trkpt>
      <trkpt lat="50.764500" lon="6.359445">
        <ele>303.400000</ele>
        <time>2009-07-19T17:05:53Z</time>
      </trkpt>
      <trkpt lat="50.764665" lon="6.359320">
        <ele>304.400000</ele>
        <time>2009-07-19T17:06:08Z</time>
      </trkpt>
      <trkpt lat="50.764707" lon="6.359300">
        <ele>300.100000</ele>
        <time>2009-07-19T17:06:12Z</time>
      </trkpt>
      <trkpt lat="50.764977" lon="6.359158">
        <ele>302.500000</ele>
        <time>2009-07-19T17:06:37Z</time>
      </trkpt>
      <trkpt lat="50.765178" lon="6.359048">
        <ele>301.500000</ele>
        <time>2009-07-19T17:06:55Z</time>
      </trkpt>
      <trkpt lat="50.765375" lon="6.358960">
        <ele>301.000000</ele>
        <time>2009-07-19T17:07:13Z</time>
      </trkpt>
      <trkpt lat="50.765478" lon="6.358887">
        <ele>300.500000</ele>
        <time>2009-07-19T17:07:22Z</time>
      </trkpt>
      <trkpt lat="50.765598" lon="6.358745">
        <ele>300.500000</ele>
        <time>2009-07-19T17:07:35Z</time>
      </trkpt>
      <trkpt lat="50.765743" lon="6.358663">
        <ele>299.100000</ele>
        <time>2009-07-19T17:07:49Z</time>
      </trkpt>
      <trkpt lat="50.765863" lon="6.358660">
        <ele>299.100000</ele>
        <time>2009-07-19T17:07:59Z</time>
      </trkpt>
      <trkpt lat="50.766080" lon="6.358737">
        <ele>300.500000</ele>
        <time>2009-07-19T17:08:18Z</time>
      </trkpt>
      <trkpt lat="50.765913" lon="6.358690">
        <ele>300.500000</ele>
        <time>2009-07-19T17:08:33Z</time>
      </trkpt>
      <trkpt lat="50.766003" lon="6.358467">
        <ele>307.800000</ele>
        <time>2009-07-19T17:08:47Z</time>
      </trkpt>
      <trkpt lat="50.766238" lon="6.358705">
        <ele>307.800000</ele>
        <time>2009-07-19T17:09:11Z</time>
      </trkpt>
      <trkpt lat="50.766235" lon="6.358812">
        <ele>311.600000</ele>
        <time>2009-07-19T17:09:17Z</time>
      </trkpt>
      <trkpt lat="50.766212" lon="6.358805">
        <ele>308.200000</ele>
        <time>2009-07-19T17:09:19Z</time>
      </trkpt>
      <trkpt lat="50.766208" lon="6.358798">
        <ele>311.600000</ele>
        <time>2009-07-19T17:09:19Z</time>
      </trkpt>
      <trkpt lat="50.766273" lon="6.358582">
        <ele>309.200000</ele>
        <time>2009-07-19T17:09:32Z</time>
      </trkpt>
      <trkpt lat="50.766315" lon="6.358370">
        <ele>309.200000</ele>
        <time>2009-07-19T17:09:44Z</time>
      </trkpt>
      <trkpt lat="50.766372" lon="6.358262">
        <ele>308.700000</ele>
        <time>2009-07-19T17:09:52Z</time>
      </trkpt>
      <trkpt lat="50.766548" lon="6.358140">
        <ele>309.200000</ele>
        <time>2009-07-19T17:10:09Z</time>
      </trkpt>
      <trkpt lat="50.766685" lon="6.358063">
        <ele>309.200000</ele>
        <time>2009-07-19T17:10:21Z</time>
      </trkpt>
      <trkpt lat="50.766857" lon="6.357952">
        <ele>309.700000</ele>
        <time>2009-07-19T17:10:37Z</time>
      </trkpt>
      <trkpt lat="50.766933" lon="6.357790">
        <ele>309.200000</ele>
        <time>2009-07-19T17:10:48Z</time>
      </trkpt>
      <trkpt lat="50.767013" lon="6.357557">
        <ele>309.200000</ele>
        <time>2009-07-19T17:11:03Z</time>
      </trkpt>
      <trkpt lat="50.767122" lon="6.357300">
        <ele>309.200000</ele>
        <time>2009-07-19T17:11:19Z</time>
      </trkpt>
      <trkpt lat="50.767178" lon="6.357113">
        <ele>309.200000</ele>
        <time>2009-07-19T17:11:31Z</time>
      </trkpt>
      <trkpt lat="50.767250" lon="6.356910">
        <ele>309.200000</ele>
        <time>2009-07-19T17:11:43Z</time>
      </trkpt>
      <trkpt lat="50.767357" lon="6.356702">
        <ele>308.200000</ele>
        <time>2009-07-19T17:11:58Z</time>
      </trkpt>
      <trkpt lat="50.767440" lon="6.356517">
        <ele>307.800000</ele>
        <time>2009-07-19T17:12:10Z</time>
      </trkpt>
      <trkpt lat="50.767538" lon="6.356213">
        <ele>307.800000</ele>
        <time>2009-07-19T17:12:29Z</time>
      </trkpt>
      <trkpt lat="50.767642" lon="6.356030">
        <ele>306.800000</ele>
        <time>2009-07-19T17:12:42Z</time>
      </trkpt>
      <trkpt lat="50.767705" lon="6.355813">
        <ele>306.300000</ele>
        <time>2009-07-19T17:12:55Z</time>
      </trkpt>
      <trkpt lat="50.767790" lon="6.355640">
        <ele>306.800000</ele>
        <time>2009-07-19T17:13:07Z</time>
      </trkpt>
      <trkpt lat="50.767882" lon="6.355465">
        <ele>306.800000</ele>
        <time>2009-07-19T17:13:20Z</time>
      </trkpt>
      <trkpt lat="50.767927" lon="6.355245">
        <ele>306.800000</ele>
        <time>2009-07-19T17:13:32Z</time>
      </trkpt>
      <trkpt lat="50.768038" lon="6.355028">
        <ele>306.800000</ele>
        <time>2009-07-19T17:13:47Z</time>
      </trkpt>
      <trkpt lat="50.768090" lon="6.354958">
        <ele>307.300000</ele>
        <time>2009-07-19T17:13:53Z</time>
      </trkpt>
      <trkpt lat="50.768183" lon="6.354767">
        <ele>305.800000</ele>
        <time>2009-07-19T17:14:06Z</time>
      </trkpt>
      <trkpt lat="50.768218" lon="6.354627">
        <ele>305.400000</ele>
        <time>2009-07-19T17:14:15Z</time>
      </trkpt>
      <trkpt lat="50.768307" lon="6.354375">
        <ele>304.400000</ele>
        <time>2009-07-19T17:14:30Z</time>
      </trkpt>
      <trkpt lat="50.768383" lon="6.354080">
        <ele>303.900000</ele>
        <time>2009-07-19T17:14:48Z</time>
      </trkpt>
      <trkpt lat="50.768438" lon="6.353918">
        <ele>303.400000</ele>
        <time>2009-07-19T17:14:58Z</time>
      </trkpt>
      <trkpt lat="50.768538" lon="6.353728">
        <ele>303.400000</ele>
        <time>2009-07-19T17:15:11Z</time>
      </trkpt>
      <trkpt lat="50.768592" lon="6.353567">
        <ele>303.000000</ele>
        <time>2009-07-19T17:15:21Z</time>
      </trkpt>
      <trkpt lat="50.768675" lon="6.353320">
        <ele>302.500000</ele>
        <time>2009-07-19T17:15:36Z</time>
      </trkpt>
      <trkpt lat="50.768715" lon="6.353238">
        <ele>302.000000</ele>
        <time>2009-07-19T17:15:42Z</time>
      </trkpt>
      <trkpt lat="50.768765" lon="6.353093">
        <ele>301.500000</ele>
        <time>2009-07-19T17:15:51Z</time>
      </trkpt>
      <trkpt lat="50.768875" lon="6.352768">
        <ele>300.500000</ele>
        <time>2009-07-19T17:16:11Z</time>
      </trkpt>
      <trkpt lat="50.768995" lon="6.352552">
        <ele>299.600000</ele>
        <time>2009-07-19T17:16:27Z</time>
      </trkpt>
      <trkpt lat="50.769122" lon="6.352352">
        <ele>299.100000</ele>
        <time>2009-07-19T17:16:42Z</time>
      </trkpt>
      <trkpt lat="50.769183" lon="6.352093">
        <ele>299.100000</ele>
        <time>2009-07-19T17:16:57Z</time>
      </trkpt>
      <trkpt lat="50.769213" lon="6.351918">
        <ele>298.100000</ele>
        <time>2009-07-19T17:17:07Z</time>
      </trkpt>
      <trkpt lat="50.769247" lon="6.351610">
        <ele>297.700000</ele>
        <time>2009-07-19T17:17:24Z</time>
      </trkpt>
      <trkpt lat="50.769295" lon="6.351305">
        <ele>297.200000</ele>
        <time>2009-07-19T17:17:41Z</time>
      </trkpt>
      <trkpt lat="50.769392" lon="6.350977">
        <ele>296.200000</ele>
        <time>2009-07-19T17:18:01Z</time>
      </trkpt>
      <trkpt lat="50.769445" lon="6.350703">
        <ele>297.200000</ele>
        <time>2009-07-19T17:18:17Z</time>
      </trkpt>
      <trkpt lat="50.769540" lon="6.350418">
        <ele>296.200000</ele>
        <time>2009-07-19T17:18:34Z</time>
      </trkpt>
      <trkpt lat="50.769600" lon="6.350110">
        <ele>295.300000</ele>
        <time>2009-07-19T17:18:52Z</time>
      </trkpt>
      <trkpt lat="50.769610" lon="6.350030">
        <ele>295.300000</ele>
        <time>2009-07-19T17:18:56Z</time>
      </trkpt>
      <trkpt lat="50.769632" lon="6.349770">
        <ele>293.300000</ele>
        <time>2009-07-19T17:19:10Z</time>
      </trkpt>
      <trkpt lat="50.769660" lon="6.349585">
        <ele>291.900000</ele>
        <time>2009-07-19T17:19:21Z</time>
      </trkpt>
      <trkpt lat="50.769700" lon="6.349378">
        <ele>290.500000</ele>
        <time>2009-07-19T17:19:32Z</time>
      </trkpt>
      <trkpt lat="50.769780" lon="6.349130">
        <ele>289.500000</ele>
        <time>2009-07-19T17:19:48Z</time>
      </trkpt>
      <trkpt lat="50.769787" lon="6.349062">
        <ele>289.000000</ele>
        <time>2009-07-19T17:19:51Z</time>
      </trkpt>
      <trkpt lat="50.769883" lon="6.348723">
        <ele>289.000000</ele>
        <time>2009-07-19T17:20:12Z</time>
      </trkpt>
      <trkpt lat="50.769957" lon="6.348540">
        <ele>288.500000</ele>
        <time>2009-07-19T17:20:23Z</time>
      </trkpt>
      <trkpt lat="50.769990" lon="6.348298">
        <ele>288.100000</ele>
        <time>2009-07-19T17:20:37Z</time>
      </trkpt>
      <trkpt lat="50.770012" lon="6.348022">
        <ele>287.100000</ele>
        <time>2009-07-19T17:20:52Z</time>
      </trkpt>
      <trkpt lat="50.770052" lon="6.347790">
        <ele>286.600000</ele>
        <time>2009-07-19T17:21:05Z</time>
      </trkpt>
      <trkpt lat="50.770143" lon="6.347613">
        <ele>285.600000</ele>
        <time>2009-07-19T17:21:18Z</time>
      </trkpt>
      <trkpt lat="50.770153" lon="6.347598">
        <ele>285.600000</ele>
        <time>2009-07-19T17:21:19Z</time>
      </trkpt>
      <trkpt lat="50.770272" lon="6.347578">
        <ele>286.600000</ele>
        <time>2009-07-19T17:21:29Z</time>
      </trkpt>
      <trkpt lat="50.770403" lon="6.347603">
        <ele>286.100000</ele>
        <time>2009-07-19T17:21:40Z</time>
      </trkpt>
      <trkpt lat="50.770602" lon="6.347603">
        <ele>286.100000</ele>
        <time>2009-07-19T17:21:58Z</time>
      </trkpt>
      <trkpt lat="50.770797" lon="6.347650">
        <ele>283.700000</ele>
        <time>2009-07-19T17:22:15Z</time>
      </trkpt>
      <trkpt lat="50.771077" lon="6.347675">
        <ele>280.400000</ele>
        <time>2009-07-19T17:22:39Z</time>
      </trkpt>
      <trkpt lat="50.771390" lon="6.347705">
        <ele>278.400000</ele>
        <time>2009-07-19T17:23:06Z</time>
      </trkpt>
      <trkpt lat="50.771533" lon="6.347718">
        <ele>278.000000</ele>
        <time>2009-07-19T17:23:18Z</time>
      </trkpt>
      <trkpt lat="50.771675" lon="6.347713">
        <ele>277.000000</ele>
        <time>2009-07-19T17:23:30Z</time>
      </trkpt>
      <trkpt lat="50.771837" lon="6.347728">
        <ele>277.000000</ele>
        <time>2009-07-19T17:23:44Z</time>
      </trkpt>
      <trkpt lat="50.771977" lon="6.347755">
        <ele>277.500000</ele>
        <time>2009-07-19T17:23:56Z</time>
      </trkpt>
      <trkpt lat="50.772143" lon="6.347775">
        <ele>276.500000</ele>
        <time>2009-07-19T17:24:11Z</time>
      </trkpt>
      <trkpt lat="50.772337" lon="6.347763">
        <ele>276.000000</ele>
        <time>2009-07-19T17:24:27Z</time>
      </trkpt>
      <trkpt lat="50.772503" lon="6.347695">
        <ele>275.100000</ele>
        <time>2009-07-19T17:24:42Z</time>
      </trkpt>
      <trkpt lat="50.772650" lon="6.347628">
        <ele>273.200000</ele>
        <time>2009-07-19T17:24:55Z</time>
      </trkpt>
      <trkpt lat="50.772700" lon="6.347608">
        <ele>272.700000</ele>
        <time>2009-07-19T17:25:00Z</time>
      </trkpt>
      <trkpt lat="50.772915" lon="6.347525">
        <ele>271.700000</ele>
        <time>2009-07-19T17:25:19Z</time>
      </trkpt>
      <trkpt lat="50.772985" lon="6.347507">
        <ele>270.700000</ele>
        <time>2009-07-19T17:25:25Z</time>
      </trkpt>
      <trkpt lat="50.773222" lon="6.347397">
        <ele>270.700000</ele>
        <time>2009-07-19T17:25:46Z</time>
      </trkpt>
      <trkpt lat="50.773467" lon="6.347298">
        <ele>268.800000</ele>
        <time>2009-07-19T17:26:08Z</time>
      </trkpt>
      <trkpt lat="50.773478" lon="6.347293">
        <ele>268.300000</ele>
        <time>2009-07-19T17:26:09Z</time>
      </trkpt>
      <trkpt lat="50.773607" lon="6.347228">
        <ele>268.300000</ele>
        <time>2009-07-19T17:26:21Z</time>
      </trkpt>
      <trkpt lat="50.773635" lon="6.347217">
        <ele>267.400000</ele>
        <time>2009-07-19T17:26:23Z</time>
      </trkpt>
      <trkpt lat="50.773777" lon="6.347123">
        <ele>266.400000</ele>
        <time>2009-07-19T17:26:36Z</time>
      </trkpt>
      <trkpt lat="50.773952" lon="6.347040">
        <ele>265.900000</ele>
        <time>2009-07-19T17:26:52Z</time>
      </trkpt>
      <trkpt lat="50.774083" lon="6.347240">
        <ele>265.500000</ele>
        <time>2009-07-19T17:27:08Z</time>
      </trkpt>
      <trkpt lat="50.774130" lon="6.347485">
        <ele>265.000000</ele>
        <time>2009-07-19T17:27:22Z</time>
      </trkpt>
      <trkpt lat="50.774168" lon="6.347592">
        <ele>264.000000</ele>
        <time>2009-07-19T17:27:28Z</time>
      </trkpt>
      <trkpt lat="50.774240" lon="6.347785">
        <ele>262.600000</ele>
        <time>2009-07-19T17:27:41Z</time>
      </trkpt>
      <trkpt lat="50.774278" lon="6.347962">
        <ele>261.100000</ele>
        <time>2009-07-19T17:27:51Z</time>
      </trkpt>
      <trkpt lat="50.774313" lon="6.348200">
        <ele>260.700000</ele>
        <time>2009-07-19T17:28:04Z</time>
      </trkpt>
      <trkpt lat="50.774360" lon="6.348358">
        <ele>260.200000</ele>
        <time>2009-07-19T17:28:14Z</time>
      </trkpt>
      <trkpt lat="50.774412" lon="6.348458">
        <ele>259.700000</ele>
        <time>2009-07-19T17:28:21Z</time>
      </trkpt>
      <trkpt lat="50.774538" lon="6.348737">
        <ele>258.300000</ele>
        <time>2009-07-19T17:28:39Z</time>
      </trkpt>
      <trkpt lat="50.774597" lon="6.348913">
        <ele>257.800000</ele>
        <time>2009-07-19T17:28:50Z</time>
      </trkpt>
      <trkpt lat="50.774748" lon="6.349272">
        <ele>255.800000</ele>
        <time>2009-07-19T17:29:14Z</time>
      </trkpt>
      <trkpt lat="50.774825" lon="6.349578">
        <ele>254.900000</ele>
        <time>2009-07-19T17:29:32Z</time>
      </trkpt>
      <trkpt lat="50.774893" lon="6.349868">
        <ele>253.900000</ele>
        <time>2009-07-19T17:29:49Z</time>
      </trkpt>
      <trkpt lat="50.774927" lon="6.350092">
        <ele>253.400000</ele>
        <time>2009-07-19T17:30:01Z</time>
      </trkpt>
      <trkpt lat="50.775032" lon="6.350350">
        <ele>252.500000</ele>
        <time>2009-07-19T17:30:18Z</time>
      </trkpt>
      <trkpt lat="50.775077" lon="6.350507">
        <ele>252.500000</ele>
        <time>2009-07-19T17:30:27Z</time>
      </trkpt>
      <trkpt lat="50.775178" lon="6.350725">
        <ele>251.000000</ele>
        <time>2009-07-19T17:30:42Z</time>
      </trkpt>
      <trkpt lat="50.775267" lon="6.350990">
        <ele>250.100000</ele>
        <time>2009-07-19T17:30:58Z</time>
      </trkpt>
      <trkpt lat="50.775308" lon="6.351078">
        <ele>250.100000</ele>
        <time>2009-07-19T17:31:04Z</time>
      </trkpt>
      <trkpt lat="50.775400" lon="6.351240">
        <ele>249.100000</ele>
        <time>2009-07-19T17:31:16Z</time>
      </trkpt>
      <trkpt lat="50.775532" lon="6.351525">
        <ele>248.600000</ele>
        <time>2009-07-19T17:31:35Z</time>
      </trkpt>
      <trkpt lat="50.775692" lon="6.351758">
        <ele>246.700000</ele>
        <time>2009-07-19T17:31:54Z</time>
      </trkpt>
      <trkpt lat="50.775880" lon="6.351865">
        <ele>246.700000</ele>
        <time>2009-07-19T17:32:11Z</time>
      </trkpt>
      <trkpt lat="50.776003" lon="6.351915">
        <ele>246.200000</ele>
        <time>2009-07-19T17:32:22Z</time>
      </trkpt>
      <trkpt lat="50.776113" lon="6.351938">
        <ele>246.200000</ele>
        <time>2009-07-19T17:32:32Z</time>
      </trkpt>
      <trkpt lat="50.776303" lon="6.351963">
        <ele>245.800000</ele>
        <time>2009-07-19T17:32:48Z</time>
      </trkpt>
      <trkpt lat="50.776333" lon="6.351965">
        <ele>244.800000</ele>
        <time>2009-07-19T17:32:51Z</time>
      </trkpt>
      <trkpt lat="50.776462" lon="6.351928">
        <ele>244.300000</ele>
        <time>2009-07-19T17:33:02Z</time>
      </trkpt>
      <trkpt lat="50.776635" lon="6.351838">
        <ele>243.800000</ele>
        <time>2009-07-19T17:33:18Z</time>
      </trkpt>
      <trkpt lat="50.776855" lon="6.351722">
        <ele>241.900000</ele>
        <time>2009-07-19T17:33:38Z</time>
      </trkpt>
      <trkpt lat="50.776953" lon="6.351580">
        <ele>240.900000</ele>
        <time>2009-07-19T17:33:49Z</time>
      </trkpt>
      <trkpt lat="50.777143" lon="6.351468">
        <ele>240.500000</ele>
        <time>2009-07-19T17:34:07Z</time>
      </trkpt>
      <trkpt lat="50.777368" lon="6.351382">
        <ele>239.000000</ele>
        <time>2009-07-19T17:34:27Z</time>
      </trkpt>
      <trkpt lat="50.777542" lon="6.351310">
        <ele>238.500000</ele>
        <time>2009-07-19T17:34:42Z</time>
      </trkpt>
      <trkpt lat="50.777753" lon="6.351227">
        <ele>237.600000</ele>
        <time>2009-07-19T17:35:01Z</time>
      </trkpt>
      <trkpt lat="50.777893" lon="6.351148">
        <ele>237.100000</ele>
        <time>2009-07-19T17:35:14Z</time>
      </trkpt>
      <trkpt lat="50.778020" lon="6.351112">
        <ele>236.600000</ele>
        <time>2009-07-19T17:35:25Z</time>
      </trkpt>
      <trkpt lat="50.778132" lon="6.351087">
        <ele>236.100000</ele>
        <time>2009-07-19T17:35:34Z</time>
      </trkpt>
      <trkpt lat="50.778250" lon="6.351130">
        <ele>235.700000</ele>
        <time>2009-07-19T17:35:45Z</time>
      </trkpt>
      <trkpt lat="50.778477" lon="6.351308">
        <ele>234.700000</ele>
        <time>2009-07-19T17:36:07Z</time>
      </trkpt>
      <trkpt lat="50.778510" lon="6.351337">
        <ele>234.700000</ele>
        <time>2009-07-19T17:36:10Z</time>
      </trkpt>
      <trkpt lat="50.778567" lon="6.351398">
        <ele>234.700000</ele>
        <time>2009-07-19T17:36:16Z</time>
      </trkpt>
      <trkpt lat="50.778743" lon="6.351615">
        <ele>234.200000</ele>
        <time>2009-07-19T17:36:35Z</time>
      </trkpt>
      <trkpt lat="50.778757" lon="6.351632">
        <ele>234.200000</ele>
        <time>2009-07-19T17:36:37Z</time>
      </trkpt>
      <trkpt lat="50.778857" lon="6.351867">
        <ele>233.300000</ele>
        <time>2009-07-19T17:36:52Z</time>
      </trkpt>
      <trkpt lat="50.778937" lon="6.352088">
        <ele>233.300000</ele>
        <time>2009-07-19T17:37:06Z</time>
      </trkpt>
      <trkpt lat="50.779023" lon="6.352337">
        <ele>231.800000</ele>
        <time>2009-07-19T17:37:21Z</time>
      </trkpt>
      <trkpt lat="50.779073" lon="6.352510">
        <ele>230.900000</ele>
        <time>2009-07-19T17:37:32Z</time>
      </trkpt>
      <trkpt lat="50.779205" lon="6.352685">
        <ele>228.900000</ele>
        <time>2009-07-19T17:37:47Z</time>
      </trkpt>
      <trkpt lat="50.779322" lon="6.352885">
        <ele>228.500000</ele>
        <time>2009-07-19T17:38:01Z</time>
      </trkpt>
      <trkpt lat="50.779423" lon="6.352993">
        <ele>228.000000</ele>
        <time>2009-07-19T17:38:12Z</time>
      </trkpt>
      <trkpt lat="50.779560" lon="6.353170">
        <ele>227.000000</ele>
        <time>2009-07-19T17:38:27Z</time>
      </trkpt>
      <trkpt lat="50.779717" lon="6.353365">
        <ele>225.600000</ele>
        <time>2009-07-19T17:38:44Z</time>
      </trkpt>
      <trkpt lat="50.779767" lon="6.353447">
        <ele>225.100000</ele>
        <time>2009-07-19T17:38:50Z</time>
      </trkpt>
      <trkpt lat="50.779835" lon="6.353577">
        <ele>224.600000</ele>
        <time>2009-07-19T17:39:00Z</time>
      </trkpt>
      <trkpt lat="50.779962" lon="6.353853">
        <ele>223.600000</ele>
        <time>2009-07-19T17:39:18Z</time>
      </trkpt>
      <trkpt lat="50.780060" lon="6.354122">
        <ele>222.700000</ele>
        <time>2009-07-19T17:39:35Z</time>
      </trkpt>
      <trkpt lat="50.780130" lon="6.354327">
        <ele>222.700000</ele>
        <time>2009-07-19T17:39:48Z</time>
      </trkpt>
      <trkpt lat="50.780203" lon="6.354522">
        <ele>222.700000</ele>
        <time>2009-07-19T17:40:00Z</time>
      </trkpt>
      <trkpt lat="50.780205" lon="6.354660">
        <ele>222.200000</ele>
        <time>2009-07-19T17:40:08Z</time>
      </trkpt>
      <trkpt lat="50.780182" lon="6.354778">
        <ele>222.700000</ele>
        <time>2009-07-19T17:40:15Z</time>
      </trkpt>
      <trkpt lat="50.780265" lon="6.354850">
        <ele>222.700000</ele>
        <time>2009-07-19T17:40:23Z</time>
      </trkpt>
      <trkpt lat="50.780315" lon="6.354770">
        <ele>222.700000</ele>
        <time>2009-07-19T17:40:29Z</time>
      </trkpt>
      <trkpt lat="50.780590" lon="6.354803">
        <ele>222.700000</ele>
        <time>2009-07-19T17:40:52Z</time>
      </trkpt>
      <trkpt lat="50.780693" lon="6.354852">
        <ele>222.200000</ele>
        <time>2009-07-19T17:41:02Z</time>
      </trkpt>
      <trkpt lat="50.780793" lon="6.354838">
        <ele>221.200000</ele>
        <time>2009-07-19T17:41:10Z</time>
      </trkpt>
      <trkpt lat="50.780935" lon="6.354747">
        <ele>220.800000</ele>
        <time>2009-07-19T17:41:24Z</time>
      </trkpt>
      <trkpt lat="50.781137" lon="6.354748">
        <ele>220.800000</ele>
        <time>2009-07-19T17:41:41Z</time>
      </trkpt>
      <trkpt lat="50.781343" lon="6.354752">
        <ele>219.800000</ele>
        <time>2009-07-19T17:41:59Z</time>
      </trkpt>
      <trkpt lat="50.781430" lon="6.354770">
        <ele>219.800000</ele>
        <time>2009-07-19T17:42:06Z</time>
      </trkpt>
      <trkpt lat="50.781635" lon="6.354817">
        <ele>219.300000</ele>
        <time>2009-07-19T17:42:24Z</time>
      </trkpt>
      <trkpt lat="50.782058" lon="6.354783">
        <ele>218.800000</ele>
        <time>2009-07-19T17:43:01Z</time>
      </trkpt>
      <trkpt lat="50.782273" lon="6.354863">
        <ele>217.900000</ele>
        <time>2009-07-19T17:43:20Z</time>
      </trkpt>
      <trkpt lat="50.782407" lon="6.354957">
        <ele>217.900000</ele>
        <time>2009-07-19T17:43:32Z</time>
      </trkpt>
      <trkpt lat="50.782513" lon="6.355075">
        <ele>217.900000</ele>
        <time>2009-07-19T17:43:44Z</time>
      </trkpt>
      <trkpt lat="50.782630" lon="6.355153">
        <ele>216.900000</ele>
        <time>2009-07-19T17:43:54Z</time>
      </trkpt>
      <trkpt lat="50.782733" lon="6.355198">
        <ele>216.000000</ele>
        <time>2009-07-19T17:44:04Z</time>
      </trkpt>
      <trkpt lat="50.782922" lon="6.355237">
        <ele>216.400000</ele>
        <time>2009-07-19T17:44:20Z</time>
      </trkpt>
      <trkpt lat="50.783147" lon="6.355302">
        <ele>216.000000</ele>
        <time>2009-07-19T17:44:40Z</time>
      </trkpt>
      <trkpt lat="50.783282" lon="6.355358">
        <ele>215.000000</ele>
        <time>2009-07-19T17:44:52Z</time>
      </trkpt>
      <trkpt lat="50.783410" lon="6.355463">
        <ele>214.000000</ele>
        <time>2009-07-19T17:45:04Z</time>
      </trkpt>
      <trkpt lat="50.783552" lon="6.355575">
        <ele>213.600000</ele>
        <time>2009-07-19T17:45:18Z</time>
      </trkpt>
      <trkpt lat="50.783572" lon="6.355582">
        <ele>213.100000</ele>
        <time>2009-07-19T17:45:19Z</time>
      </trkpt>
      <trkpt lat="50.783668" lon="6.355727">
        <ele>212.600000</ele>
        <time>2009-07-19T17:45:31Z</time>
      </trkpt>
      <trkpt lat="50.783760" lon="6.355850">
        <ele>211.600000</ele>
        <time>2009-07-19T17:45:41Z</time>
      </trkpt>
      <trkpt lat="50.783885" lon="6.355918">
        <ele>210.700000</ele>
        <time>2009-07-19T17:45:53Z</time>
      </trkpt>
      <trkpt lat="50.784010" lon="6.355957">
        <ele>210.200000</ele>
        <time>2009-07-19T17:46:04Z</time>
      </trkpt>
      <trkpt lat="50.784155" lon="6.355952">
        <ele>210.200000</ele>
        <time>2009-07-19T17:46:16Z</time>
      </trkpt>
      <trkpt lat="50.784323" lon="6.355967">
        <ele>208.700000</ele>
        <time>2009-07-19T17:46:31Z</time>
      </trkpt>
      <trkpt lat="50.784532" lon="6.355977">
        <ele>207.800000</ele>
        <time>2009-07-19T17:46:49Z</time>
      </trkpt>
      <trkpt lat="50.784748" lon="6.355992">
        <ele>208.300000</ele>
        <time>2009-07-19T17:47:07Z</time>
      </trkpt>
      <trkpt lat="50.784907" lon="6.355968">
        <ele>208.300000</ele>
        <time>2009-07-19T17:47:21Z</time>
      </trkpt>
      <trkpt lat="50.785032" lon="6.355968">
        <ele>207.800000</ele>
        <time>2009-07-19T17:47:32Z</time>
      </trkpt>
      <trkpt lat="50.785210" lon="6.355963">
        <ele>206.800000</ele>
        <time>2009-07-19T17:47:47Z</time>
      </trkpt>
      <trkpt lat="50.785283" lon="6.355952">
        <ele>206.300000</ele>
        <time>2009-07-19T17:47:53Z</time>
      </trkpt>
      <trkpt lat="50.785310" lon="6.355907">
        <ele>204.900000</ele>
        <time>2009-07-19T17:47:57Z</time>
      </trkpt>
      <trkpt lat="50.785448" lon="6.355902">
        <ele>204.900000</ele>
        <time>2009-07-19T17:48:09Z</time>
      </trkpt>
      <trkpt lat="50.785628" lon="6.355823">
        <ele>204.400000</ele>
        <time>2009-07-19T17:48:25Z</time>
      </trkpt>
      <trkpt lat="50.785667" lon="6.355742">
        <ele>204.400000</ele>
        <time>2009-07-19T17:48:30Z</time>
      </trkpt>
      <trkpt lat="50.785783" lon="6.355627">
        <ele>202.500000</ele>
        <time>2009-07-19T17:48:42Z</time>
      </trkpt>
      <trkpt lat="50.785895" lon="6.355532">
        <ele>201.100000</ele>
        <time>2009-07-19T17:48:53Z</time>
      </trkpt>
      <trkpt lat="50.786083" lon="6.355440">
        <ele>201.100000</ele>
        <time>2009-07-19T17:49:10Z</time>
      </trkpt>
      <trkpt lat="50.786293" lon="6.355388">
        <ele>200.100000</ele>
        <time>2009-07-19T17:49:28Z</time>
      </trkpt>
      <trkpt lat="50.786388" lon="6.355375">
        <ele>199.600000</ele>
        <time>2009-07-19T17:49:37Z</time>
      </trkpt>
      <trkpt lat="50.786615" lon="6.355252">
        <ele>199.600000</ele>
        <time>2009-07-19T17:49:57Z</time>
      </trkpt>
      <trkpt lat="50.786768" lon="6.355157">
        <ele>197.700000</ele>
        <time>2009-07-19T17:50:11Z</time>
      </trkpt>
      <trkpt lat="50.786897" lon="6.355047">
        <ele>197.200000</ele>
        <time>2009-07-19T17:50:24Z</time>
      </trkpt>
      <trkpt lat="50.787000" lon="6.354973">
        <ele>196.700000</ele>
        <time>2009-07-19T17:50:34Z</time>
      </trkpt>
      <trkpt lat="50.787145" lon="6.354893">
        <ele>195.300000</ele>
        <time>2009-07-19T17:50:47Z</time>
      </trkpt>
      <trkpt lat="50.787335" lon="6.354778">
        <ele>195.300000</ele>
        <time>2009-07-19T17:51:04Z</time>
      </trkpt>
      <trkpt lat="50.787532" lon="6.354708">
        <ele>194.800000</ele>
        <time>2009-07-19T17:51:22Z</time>
      </trkpt>
      <trkpt lat="50.787633" lon="6.354653">
        <ele>194.800000</ele>
        <time>2009-07-19T17:51:31Z</time>
      </trkpt>
      <trkpt lat="50.787707" lon="6.354593">
        <ele>194.800000</ele>
        <time>2009-07-19T17:51:38Z</time>
      </trkpt>
      <trkpt lat="50.787833" lon="6.354438">
        <ele>193.400000</ele>
        <time>2009-07-19T17:51:52Z</time>
      </trkpt>
      <trkpt lat="50.788025" lon="6.354188">
        <ele>191.000000</ele>
        <time>2009-07-19T17:52:13Z</time>
      </trkpt>
      <trkpt lat="50.788078" lon="6.354038">
        <ele>190.000000</ele>
        <time>2009-07-19T17:52:23Z</time>
      </trkpt>
      <trkpt lat="50.788195" lon="6.353908">
        <ele>189.000000</ele>
        <time>2009-07-19T17:52:35Z</time>
      </trkpt>
      <trkpt lat="50.788362" lon="6.353722">
        <ele>188.100000</ele>
        <time>2009-07-19T17:52:53Z</time>
      </trkpt>
      <trkpt lat="50.788500" lon="6.353602">
        <ele>187.100000</ele>
        <time>2009-07-19T17:53:06Z</time>
      </trkpt>
      <trkpt lat="50.788613" lon="6.353510">
        <ele>185.700000</ele>
        <time>2009-07-19T17:53:17Z</time>
      </trkpt>
      <trkpt lat="50.788738" lon="6.353418">
        <ele>184.700000</ele>
        <time>2009-07-19T17:53:29Z</time>
      </trkpt>
      <trkpt lat="50.788762" lon="6.353418">
        <ele>184.700000</ele>
        <time>2009-07-19T17:53:31Z</time>
      </trkpt>
      <trkpt lat="50.789057" lon="6.353543">
        <ele>184.700000</ele>
        <time>2009-07-19T17:53:57Z</time>
      </trkpt>
      <trkpt lat="50.789072" lon="6.353562">
        <ele>184.700000</ele>
        <time>2009-07-19T17:53:59Z</time>
      </trkpt>
      <trkpt lat="50.789240" lon="6.353802">
        <ele>185.200000</ele>
        <time>2009-07-19T17:54:19Z</time>
      </trkpt>
      <trkpt lat="50.789373" lon="6.354030">
        <ele>185.700000</ele>
        <time>2009-07-19T17:54:35Z</time>
      </trkpt>
      <trkpt lat="50.789430" lon="6.354117">
        <ele>185.700000</ele>
        <time>2009-07-19T17:54:42Z</time>
      </trkpt>
      <trkpt lat="50.789547" lon="6.354328">
        <ele>186.600000</ele>
        <time>2009-07-19T17:54:57Z</time>
      </trkpt>
      <trkpt lat="50.789617" lon="6.354585">
        <ele>188.100000</ele>
        <time>2009-07-19T17:55:13Z</time>
      </trkpt>
      <trkpt lat="50.789718" lon="6.354825">
        <ele>188.600000</ele>
        <time>2009-07-19T17:55:28Z</time>
      </trkpt>
      <trkpt lat="50.789780" lon="6.354997">
        <ele>190.000000</ele>
        <time>2009-07-19T17:55:39Z</time>
      </trkpt>
      <trkpt lat="50.789852" lon="6.355200">
        <ele>191.000000</ele>
        <time>2009-07-19T17:55:52Z</time>
      </trkpt>
      <trkpt lat="50.789868" lon="6.355375">
        <ele>191.900000</ele>
        <time>2009-07-19T17:56:01Z</time>
      </trkpt>
      <trkpt lat="50.789902" lon="6.355542">
        <ele>191.900000</ele>
        <time>2009-07-19T17:56:11Z</time>
      </trkpt>
      <trkpt lat="50.789935" lon="6.355728">
        <ele>192.900000</ele>
        <time>2009-07-19T17:56:22Z</time>
      </trkpt>
      <trkpt lat="50.789972" lon="6.356003">
        <ele>194.300000</ele>
        <time>2009-07-19T17:56:37Z</time>
      </trkpt>
      <trkpt lat="50.790010" lon="6.356265">
        <ele>195.300000</ele>
        <time>2009-07-19T17:56:51Z</time>
      </trkpt>
      <trkpt lat="50.790093" lon="6.356418">
        <ele>197.200000</ele>
        <time>2009-07-19T17:57:02Z</time>
      </trkpt>
      <trkpt lat="50.790105" lon="6.356448">
        <ele>197.200000</ele>
        <time>2009-07-19T17:57:04Z</time>
      </trkpt>
      <trkpt lat="50.790207" lon="6.356680">
        <ele>198.200000</ele>
        <time>2009-07-19T17:57:20Z</time>
      </trkpt>
      <trkpt lat="50.790288" lon="6.356842">
        <ele>199.100000</ele>
        <time>2009-07-19T17:57:31Z</time>
      </trkpt>
      <trkpt lat="50.790425" lon="6.357027">
        <ele>200.100000</ele>
        <time>2009-07-19T17:57:46Z</time>
      </trkpt>
      <trkpt lat="50.790478" lon="6.357270">
        <ele>202.000000</ele>
        <time>2009-07-19T17:58:01Z</time>
      </trkpt>
      <trkpt lat="50.790518" lon="6.357513">
        <ele>203.900000</ele>
        <time>2009-07-19T17:58:14Z</time>
      </trkpt>
      <trkpt lat="50.790547" lon="6.357740">
        <ele>205.900000</ele>
        <time>2009-07-19T17:58:27Z</time>
      </trkpt>
      <trkpt lat="50.790570" lon="6.357945">
        <ele>207.800000</ele>
        <time>2009-07-19T17:58:38Z</time>
      </trkpt>
      <trkpt lat="50.790573" lon="6.358043">
        <ele>208.300000</ele>
        <time>2009-07-19T17:58:43Z</time>
      </trkpt>
      <trkpt lat="50.790620" lon="6.358273">
        <ele>209.200000</ele>
        <time>2009-07-19T17:58:57Z</time>
      </trkpt>
      <trkpt lat="50.790617" lon="6.358485">
        <ele>209.700000</ele>
        <time>2009-07-19T17:59:08Z</time>
      </trkpt>
      <trkpt lat="50.790610" lon="6.358542">
        <ele>210.700000</ele>
        <time>2009-07-19T17:59:11Z</time>
      </trkpt>
      <trkpt lat="50.790617" lon="6.358592">
        <ele>211.100000</ele>
        <time>2009-07-19T17:59:14Z</time>
      </trkpt>
      <trkpt lat="50.790623" lon="6.358663">
        <ele>211.600000</ele>
        <time>2009-07-19T17:59:18Z</time>
      </trkpt>
      <trkpt lat="50.790638" lon="6.358733">
        <ele>212.600000</ele>
        <time>2009-07-19T17:59:22Z</time>
      </trkpt>
      <trkpt lat="50.790783" lon="6.358968">
        <ele>214.000000</ele>
        <time>2009-07-19T17:59:40Z</time>
      </trkpt>
      <trkpt lat="50.790978" lon="6.359040">
        <ele>215.000000</ele>
        <time>2009-07-19T17:59:57Z</time>
      </trkpt>
      <trkpt lat="50.791207" lon="6.358948">
        <ele>216.400000</ele>
        <time>2009-07-19T18:00:17Z</time>
      </trkpt>
      <trkpt lat="50.791383" lon="6.358660">
        <ele>215.000000</ele>
        <time>2009-07-19T18:00:39Z</time>
      </trkpt>
      <trkpt lat="50.791475" lon="6.358330">
        <ele>214.000000</ele>
        <time>2009-07-19T18:00:59Z</time>
      </trkpt>
      <trkpt lat="50.791498" lon="6.358228">
        <ele>213.600000</ele>
        <time>2009-07-19T18:01:05Z</time>
      </trkpt>
      <trkpt lat="50.791577" lon="6.358042">
        <ele>212.600000</ele>
        <time>2009-07-19T18:01:17Z</time>
      </trkpt>
      <trkpt lat="50.791548" lon="6.357837">
        <ele>213.100000</ele>
        <time>2009-07-19T18:01:28Z</time>
      </trkpt>
      <trkpt lat="50.791537" lon="6.357793">
        <ele>213.100000</ele>
        <time>2009-07-19T18:01:31Z</time>
      </trkpt>
      <trkpt lat="50.791535" lon="6.357712">
        <ele>214.000000</ele>
        <time>2009-07-19T18:01:35Z</time>
      </trkpt>
      <trkpt lat="50.791537" lon="6.357645">
        <ele>214.000000</ele>
        <time>2009-07-19T18:01:39Z</time>
      </trkpt>
      <trkpt lat="50.791485" lon="6.357615">
        <ele>214.000000</ele>
        <time>2009-07-19T18:01:44Z</time>
      </trkpt>
      <trkpt lat="50.791372" lon="6.357598">
        <ele>214.500000</ele>
        <time>2009-07-19T18:01:54Z</time>
      </trkpt>
      <trkpt lat="50.791262" lon="6.357618">
        <ele>214.500000</ele>
        <time>2009-07-19T18:02:03Z</time>
      </trkpt>
      <trkpt lat="50.791282" lon="6.357602">
        <ele>215.000000</ele>
        <time>2009-07-19T18:02:05Z</time>
      </trkpt>
      <trkpt lat="50.791505" lon="6.357652">
        <ele>214.500000</ele>
        <time>2009-07-19T18:02:24Z</time>
      </trkpt>
      <trkpt lat="50.791560" lon="6.357638">
        <ele>214.500000</ele>
        <time>2009-07-19T18:02:29Z</time>
      </trkpt>
      <trkpt lat="50.791658" lon="6.357713">
        <ele>215.000000</ele>
        <time>2009-07-19T18:02:39Z</time>
      </trkpt>
      <trkpt lat="50.791650" lon="6.357717">
        <ele>216.000000</ele>
        <time>2009-07-19T18:02:39Z</time>
      </trkpt>
      <trkpt lat="50.791643" lon="6.357773">
        <ele>214.500000</ele>
        <time>2009-07-19T18:02:42Z</time>
      </trkpt>
      <trkpt lat="50.791622" lon="6.357930">
        <ele>214.500000</ele>
        <time>2009-07-19T18:02:51Z</time>
      </trkpt>
      <trkpt lat="50.791603" lon="6.357948">
        <ele>215.000000</ele>
        <time>2009-07-19T18:02:53Z</time>
      </trkpt>
      <trkpt lat="50.791600" lon="6.358092">
        <ele>215.000000</ele>
        <time>2009-07-19T18:03:01Z</time>
      </trkpt>
      <trkpt lat="50.791535" lon="6.358348">
        <ele>215.500000</ele>
        <time>2009-07-19T18:03:16Z</time>
      </trkpt>
      <trkpt lat="50.791455" lon="6.358588">
        <ele>216.400000</ele>
        <time>2009-07-19T18:03:31Z</time>
      </trkpt>
      <trkpt lat="50.791363" lon="6.358852">
        <ele>216.900000</ele>
        <time>2009-07-19T18:03:47Z</time>
      </trkpt>
      <trkpt lat="50.791328" lon="6.358977">
        <ele>218.400000</ele>
        <time>2009-07-19T18:03:54Z</time>
      </trkpt>
      <trkpt lat="50.791365" lon="6.359248">
        <ele>219.800000</ele>
        <time>2009-07-19T18:04:10Z</time>
      </trkpt>
      <trkpt lat="50.791365" lon="6.359265">
        <ele>219.300000</ele>
        <time>2009-07-19T18:04:10Z</time>
      </trkpt>
      <trkpt lat="50.791395" lon="6.359557">
        <ele>222.200000</ele>
        <time>2009-07-19T18:04:27Z</time>
      </trkpt>
      <trkpt lat="50.791412" lon="6.359702">
        <ele>224.600000</ele>
        <time>2009-07-19T18:04:35Z</time>
      </trkpt>
      <trkpt lat="50.791410" lon="6.360013">
        <ele>225.600000</ele>
        <time>2009-07-19T18:04:52Z</time>
      </trkpt>
      <trkpt lat="50.791388" lon="6.360277">
        <ele>227.000000</ele>
        <time>2009-07-19T18:05:06Z</time>
      </trkpt>
      <trkpt lat="50.791397" lon="6.360423">
        <ele>228.000000</ele>
        <time>2009-07-19T18:05:14Z</time>
      </trkpt>
      <trkpt lat="50.791408" lon="6.360622">
        <ele>229.400000</ele>
        <time>2009-07-19T18:05:25Z</time>
      </trkpt>
      <trkpt lat="50.791368" lon="6.360902">
        <ele>230.400000</ele>
        <time>2009-07-19T18:05:40Z</time>
      </trkpt>
      <trkpt lat="50.791338" lon="6.361083">
        <ele>232.300000</ele>
        <time>2009-07-19T18:05:51Z</time>
      </trkpt>
      <trkpt lat="50.791337" lon="6.361165">
        <ele>232.300000</ele>
        <time>2009-07-19T18:05:55Z</time>
      </trkpt>
      <trkpt lat="50.791440" lon="6.361428">
        <ele>233.700000</ele>
        <time>2009-07-19T18:06:12Z</time>
      </trkpt>
      <trkpt lat="50.791455" lon="6.361673">
        <ele>235.700000</ele>
        <time>2009-07-19T18:06:25Z</time>
      </trkpt>
      <trkpt lat="50.791437" lon="6.361948">
        <ele>237.100000</ele>
        <time>2009-07-19T18:06:41Z</time>
      </trkpt>
      <trkpt lat="50.791435" lon="6.362247">
        <ele>239.000000</ele>
        <time>2009-07-19T18:06:57Z</time>
      </trkpt>
      <trkpt lat="50.791495" lon="6.362547">
        <ele>240.900000</ele>
        <time>2009-07-19T18:07:14Z</time>
      </trkpt>
      <trkpt lat="50.791478" lon="6.362730">
        <ele>242.900000</ele>
        <time>2009-07-19T18:07:24Z</time>
      </trkpt>
      <trkpt lat="50.791475" lon="6.362907">
        <ele>244.300000</ele>
        <time>2009-07-19T18:07:34Z</time>
      </trkpt>
      <trkpt lat="50.791453" lon="6.363128">
        <ele>245.800000</ele>
        <time>2009-07-19T18:07:46Z</time>
      </trkpt>
      <trkpt lat="50.791465" lon="6.363432">
        <ele>247.200000</ele>
        <time>2009-07-19T18:08:02Z</time>
      </trkpt>
      <trkpt lat="50.791497" lon="6.363718">
        <ele>248.200000</ele>
        <time>2009-07-19T18:08:18Z</time>
      </trkpt>
      <trkpt lat="50.791478" lon="6.364000">
        <ele>250.100000</ele>
        <time>2009-07-19T18:08:34Z</time>
      </trkpt>
      <trkpt lat="50.791435" lon="6.364257">
        <ele>251.500000</ele>
        <time>2009-07-19T18:08:48Z</time>
      </trkpt>
      <trkpt lat="50.791443" lon="6.364463">
        <ele>253.000000</ele>
        <time>2009-07-19T18:08:59Z</time>
      </trkpt>
      <trkpt lat="50.791452" lon="6.364727">
        <ele>252.000000</ele>
        <time>2009-07-19T18:09:14Z</time>
      </trkpt>
      <trkpt lat="50.791515" lon="6.364948">
        <ele>252.500000</ele>
        <time>2009-07-19T18:09:27Z</time>
      </trkpt>
      <trkpt lat="50.791513" lon="6.365115">
        <ele>252.500000</ele>
        <time>2009-07-19T18:09:36Z</time>
      </trkpt>
      <trkpt lat="50.791557" lon="6.365370">
        <ele>253.000000</ele>
        <time>2009-07-19T18:09:50Z</time>
      </trkpt>
      <trkpt lat="50.791527" lon="6.365532">
        <ele>254.900000</ele>
        <time>2009-07-19T18:10:00Z</time>
      </trkpt>
      <trkpt lat="50.791533" lon="6.365717">
        <ele>255.800000</ele>
        <time>2009-07-19T18:10:10Z</time>
      </trkpt>
      <trkpt lat="50.791567" lon="6.365957">
        <ele>256.800000</ele>
        <time>2009-07-19T18:10:23Z</time>
      </trkpt>
      <trkpt lat="50.791578" lon="6.366173">
        <ele>256.800000</ele>
        <time>2009-07-19T18:10:35Z</time>
      </trkpt>
      <trkpt lat="50.791572" lon="6.366307">
        <ele>256.800000</ele>
        <time>2009-07-19T18:10:42Z</time>
      </trkpt>
      <trkpt lat="50.791582" lon="6.366402">
        <ele>256.800000</ele>
        <time>2009-07-19T18:10:47Z</time>
      </trkpt>
      <trkpt lat="50.791600" lon="6.366493">
        <ele>257.300000</ele>
        <time>2009-07-19T18:10:53Z</time>
      </trkpt>
      <trkpt lat="50.791633" lon="6.366790">
        <ele>256.300000</ele>
        <time>2009-07-19T18:11:09Z</time>
      </trkpt>
      <trkpt lat="50.791680" lon="6.367127">
        <ele>256.300000</ele>
        <time>2009-07-19T18:11:28Z</time>
      </trkpt>
      <trkpt lat="50.791717" lon="6.367438">
        <ele>256.300000</ele>
        <time>2009-07-19T18:11:45Z</time>
      </trkpt>
      <trkpt lat="50.791742" lon="6.367678">
        <ele>256.300000</ele>
        <time>2009-07-19T18:11:58Z</time>
      </trkpt>
      <trkpt lat="50.791782" lon="6.368135">
        <ele>256.800000</ele>
        <time>2009-07-19T18:12:23Z</time>
      </trkpt>
      <trkpt lat="50.791773" lon="6.368258">
        <ele>255.800000</ele>
        <time>2009-07-19T18:12:30Z</time>
      </trkpt>
      <trkpt lat="50.791792" lon="6.368358">
        <ele>256.300000</ele>
        <time>2009-07-19T18:12:36Z</time>
      </trkpt>
      <trkpt lat="50.791873" lon="6.368687">
        <ele>255.800000</ele>
        <time>2009-07-19T18:12:55Z</time>
      </trkpt>
      <trkpt lat="50.791897" lon="6.369068">
        <ele>256.300000</ele>
        <time>2009-07-19T18:13:16Z</time>
      </trkpt>
      <trkpt lat="50.791930" lon="6.369335">
        <ele>256.800000</ele>
        <time>2009-07-19T18:13:31Z</time>
      </trkpt>
      <trkpt lat="50.791963" lon="6.369582">
        <ele>256.800000</ele>
        <time>2009-07-19T18:13:44Z</time>
      </trkpt>
      <trkpt lat="50.792005" lon="6.369823">
        <ele>256.300000</ele>
        <time>2009-07-19T18:13:58Z</time>
      </trkpt>
      <trkpt lat="50.792078" lon="6.370122">
        <ele>253.900000</ele>
        <time>2009-07-19T18:14:15Z</time>
      </trkpt>
      <trkpt lat="50.792130" lon="6.370363">
        <ele>253.000000</ele>
        <time>2009-07-19T18:14:29Z</time>
      </trkpt>
      <trkpt lat="50.792173" lon="6.370535">
        <ele>251.500000</ele>
        <time>2009-07-19T18:14:39Z</time>
      </trkpt>
      <trkpt lat="50.792202" lon="6.370762">
        <ele>250.600000</ele>
        <time>2009-07-19T18:14:52Z</time>
      </trkpt>
      <trkpt lat="50.792237" lon="6.370982">
        <ele>249.600000</ele>
        <time>2009-07-19T18:15:04Z</time>
      </trkpt>
      <trkpt lat="50.792280" lon="6.371190">
        <ele>249.100000</ele>
        <time>2009-07-19T18:15:16Z</time>
      </trkpt>
      <trkpt lat="50.792305" lon="6.371313">
        <ele>249.600000</ele>
        <time>2009-07-19T18:15:23Z</time>
      </trkpt>
      <trkpt lat="50.792362" lon="6.371643">
        <ele>248.200000</ele>
        <time>2009-07-19T18:15:42Z</time>
      </trkpt>
      <trkpt lat="50.792348" lon="6.371720">
        <ele>247.700000</ele>
        <time>2009-07-19T18:15:46Z</time>
      </trkpt>
      <trkpt lat="50.792295" lon="6.371812">
        <ele>247.700000</ele>
        <time>2009-07-19T18:15:53Z</time>
      </trkpt>
      <trkpt lat="50.792228" lon="6.371878">
        <ele>248.200000</ele>
        <time>2009-07-19T18:16:00Z</time>
      </trkpt>
      <trkpt lat="50.792032" lon="6.371872">
        <ele>247.200000</ele>
        <time>2009-07-19T18:16:17Z</time>
      </trkpt>
      <trkpt lat="50.791887" lon="6.371800">
        <ele>247.700000</ele>
        <time>2009-07-19T18:16:30Z</time>
      </trkpt>
      <trkpt lat="50.791777" lon="6.371693">
        <ele>247.200000</ele>
        <time>2009-07-19T18:16:41Z</time>
      </trkpt>
      <trkpt lat="50.791658" lon="6.371567">
        <ele>248.200000</ele>
        <time>2009-07-19T18:16:53Z</time>
      </trkpt>
      <trkpt lat="50.791495" lon="6.371387">
        <ele>247.200000</ele>
        <time>2009-07-19T18:17:11Z</time>
      </trkpt>
      <trkpt lat="50.791362" lon="6.371208">
        <ele>246.200000</ele>
        <time>2009-07-19T18:17:26Z</time>
      </trkpt>
      <trkpt lat="50.791180" lon="6.371013">
        <ele>245.800000</ele>
        <time>2009-07-19T18:17:45Z</time>
      </trkpt>
      <trkpt lat="50.791043" lon="6.370900">
        <ele>245.800000</ele>
        <time>2009-07-19T18:17:58Z</time>
      </trkpt>
      <trkpt lat="50.790882" lon="6.370705">
        <ele>246.200000</ele>
        <time>2009-07-19T18:18:15Z</time>
      </trkpt>
      <trkpt lat="50.790800" lon="6.370582">
        <ele>245.300000</ele>
        <time>2009-07-19T18:18:25Z</time>
      </trkpt>
      <trkpt lat="50.790687" lon="6.370437">
        <ele>245.800000</ele>
        <time>2009-07-19T18:18:38Z</time>
      </trkpt>
      <trkpt lat="50.790540" lon="6.370287">
        <ele>245.800000</ele>
        <time>2009-07-19T18:18:53Z</time>
      </trkpt>
      <trkpt lat="50.790380" lon="6.370085">
        <ele>246.700000</ele>
        <time>2009-07-19T18:19:10Z</time>
      </trkpt>
      <trkpt lat="50.790263" lon="6.369985">
        <ele>247.200000</ele>
        <time>2009-07-19T18:19:22Z</time>
      </trkpt>
      <trkpt lat="50.790193" lon="6.369873">
        <ele>247.200000</ele>
        <time>2009-07-19T18:19:30Z</time>
      </trkpt>
      <trkpt lat="50.790038" lon="6.369657">
        <ele>247.200000</ele>
        <time>2009-07-19T18:19:48Z</time>
      </trkpt>
      <trkpt lat="50.789918" lon="6.369522">
        <ele>247.700000</ele>
        <time>2009-07-19T18:20:01Z</time>
      </trkpt>
      <trkpt lat="50.789780" lon="6.369330">
        <ele>248.200000</ele>
        <time>2009-07-19T18:20:16Z</time>
      </trkpt>
      <trkpt lat="50.789662" lon="6.369188">
        <ele>249.100000</ele>
        <time>2009-07-19T18:20:29Z</time>
      </trkpt>
      <trkpt lat="50.789542" lon="6.369033">
        <ele>250.600000</ele>
        <time>2009-07-19T18:20:43Z</time>
      </trkpt>
      <trkpt lat="50.789447" lon="6.368907">
        <ele>250.600000</ele>
        <time>2009-07-19T18:20:53Z</time>
      </trkpt>
      <trkpt lat="50.789258" lon="6.368737">
        <ele>250.600000</ele>
        <time>2009-07-19T18:21:12Z</time>
      </trkpt>
      <trkpt lat="50.789088" lon="6.368533">
        <ele>251.500000</ele>
        <time>2009-07-19T18:21:30Z</time>
      </trkpt>
      <trkpt lat="50.788977" lon="6.368398">
        <ele>252.000000</ele>
        <time>2009-07-19T18:21:42Z</time>
      </trkpt>
      <trkpt lat="50.788880" lon="6.368290">
        <ele>253.000000</ele>
        <time>2009-07-19T18:21:53Z</time>
      </trkpt>
      <trkpt lat="50.788745" lon="6.368123">
        <ele>252.500000</ele>
        <time>2009-07-19T18:22:07Z</time>
      </trkpt>
      <trkpt lat="50.788597" lon="6.367985">
        <ele>254.400000</ele>
        <time>2009-07-19T18:22:22Z</time>
      </trkpt>
      <trkpt lat="50.788520" lon="6.367923">
        <ele>254.400000</ele>
        <time>2009-07-19T18:22:30Z</time>
      </trkpt>
      <trkpt lat="50.788468" lon="6.367870">
        <ele>255.800000</ele>
        <time>2009-07-19T18:22:35Z</time>
      </trkpt>
      <trkpt lat="50.788388" lon="6.367733">
        <ele>256.300000</ele>
        <time>2009-07-19T18:22:45Z</time>
      </trkpt>
      <trkpt lat="50.788262" lon="6.367633">
        <ele>258.300000</ele>
        <time>2009-07-19T18:22:57Z</time>
      </trkpt>
      <trkpt lat="50.788108" lon="6.367535">
        <ele>258.700000</ele>
        <time>2009-07-19T18:23:12Z</time>
      </trkpt>
      <trkpt lat="50.787963" lon="6.367458">
        <ele>258.300000</ele>
        <time>2009-07-19T18:23:25Z</time>
      </trkpt>
      <trkpt lat="50.787837" lon="6.367430">
        <ele>259.200000</ele>
        <time>2009-07-19T18:23:36Z</time>
      </trkpt>
      <trkpt lat="50.787708" lon="6.367395">
        <ele>259.700000</ele>
        <time>2009-07-19T18:23:47Z</time>
      </trkpt>
      <trkpt lat="50.787560" lon="6.367342">
        <ele>259.700000</ele>
        <time>2009-07-19T18:24:00Z</time>
      </trkpt>
      <trkpt lat="50.787487" lon="6.367305">
        <ele>259.200000</ele>
        <time>2009-07-19T18:24:07Z</time>
      </trkpt>
      <trkpt lat="50.787458" lon="6.367297">
        <ele>259.700000</ele>
        <time>2009-07-19T18:24:09Z</time>
      </trkpt>
      <trkpt lat="50.787265" lon="6.367207">
        <ele>260.200000</ele>
        <time>2009-07-19T18:24:27Z</time>
      </trkpt>
      <trkpt lat="50.787095" lon="6.367127">
        <ele>260.200000</ele>
        <time>2009-07-19T18:24:42Z</time>
      </trkpt>
      <trkpt lat="50.786918" lon="6.367035">
        <ele>260.700000</ele>
        <time>2009-07-19T18:24:58Z</time>
      </trkpt>
      <trkpt lat="50.786765" lon="6.366937">
        <ele>260.700000</ele>
        <time>2009-07-19T18:25:12Z</time>
      </trkpt>
      <trkpt lat="50.786583" lon="6.366840">
        <ele>259.700000</ele>
        <time>2009-07-19T18:25:29Z</time>
      </trkpt>
      <trkpt lat="50.786412" lon="6.366673">
        <ele>258.300000</ele>
        <time>2009-07-19T18:25:46Z</time>
      </trkpt>
      <trkpt lat="50.786263" lon="6.366552">
        <ele>255.800000</ele>
        <time>2009-07-19T18:26:00Z</time>
      </trkpt>
      <trkpt lat="50.786110" lon="6.366422">
        <ele>255.800000</ele>
        <time>2009-07-19T18:26:15Z</time>
      </trkpt>
      <trkpt lat="50.785955" lon="6.366300">
        <ele>253.900000</ele>
        <time>2009-07-19T18:26:30Z</time>
      </trkpt>
      <trkpt lat="50.785832" lon="6.366187">
        <ele>253.000000</ele>
        <time>2009-07-19T18:26:43Z</time>
      </trkpt>
      <trkpt lat="50.785683" lon="6.365988">
        <ele>251.500000</ele>
        <time>2009-07-19T18:26:59Z</time>
      </trkpt>
      <trkpt lat="50.785605" lon="6.365822">
        <ele>251.500000</ele>
        <time>2009-07-19T18:27:11Z</time>
      </trkpt>
      <trkpt lat="50.785533" lon="6.365653">
        <ele>251.000000</ele>
        <time>2009-07-19T18:27:22Z</time>
      </trkpt>
      <trkpt lat="50.785468" lon="6.365498">
        <ele>250.600000</ele>
        <time>2009-07-19T18:27:32Z</time>
      </trkpt>
      <trkpt lat="50.785397" lon="6.365305">
        <ele>250.600000</ele>
        <time>2009-07-19T18:27:44Z</time>
      </trkpt>
      <trkpt lat="50.785305" lon="6.365147">
        <ele>250.600000</ele>
        <time>2009-07-19T18:27:56Z</time>
      </trkpt>
      <trkpt lat="50.785178" lon="6.364937">
        <ele>250.100000</ele>
        <time>2009-07-19T18:28:11Z</time>
      </trkpt>
      <trkpt lat="50.785088" lon="6.364767">
        <ele>249.600000</ele>
        <time>2009-07-19T18:28:24Z</time>
      </trkpt>
      <trkpt lat="50.784938" lon="6.364593">
        <ele>249.600000</ele>
        <time>2009-07-19T18:28:40Z</time>
      </trkpt>
      <trkpt lat="50.784850" lon="6.364437">
        <ele>248.600000</ele>
        <time>2009-07-19T18:28:51Z</time>
      </trkpt>
      <trkpt lat="50.784688" lon="6.364235">
        <ele>248.200000</ele>
        <time>2009-07-19T18:29:09Z</time>
      </trkpt>
      <trkpt lat="50.784583" lon="6.364085">
        <ele>246.700000</ele>
        <time>2009-07-19T18:29:21Z</time>
      </trkpt>
      <trkpt lat="50.784447" lon="6.363892">
        <ele>245.800000</ele>
        <time>2009-07-19T18:29:37Z</time>
      </trkpt>
      <trkpt lat="50.784325" lon="6.363798">
        <ele>244.800000</ele>
        <time>2009-07-19T18:29:48Z</time>
      </trkpt>
      <trkpt lat="50.784158" lon="6.363680">
        <ele>244.800000</ele>
        <time>2009-07-19T18:30:04Z</time>
      </trkpt>
      <trkpt lat="50.784047" lon="6.363583">
        <ele>244.300000</ele>
        <time>2009-07-19T18:30:15Z</time>
      </trkpt>
      <trkpt lat="50.783910" lon="6.363432">
        <ele>244.300000</ele>
        <time>2009-07-19T18:30:29Z</time>
      </trkpt>
      <trkpt lat="50.783828" lon="6.363343">
        <ele>243.800000</ele>
        <time>2009-07-19T18:30:38Z</time>
      </trkpt>
      <trkpt lat="50.783690" lon="6.363225">
        <ele>243.400000</ele>
        <time>2009-07-19T18:30:51Z</time>
      </trkpt>
      <trkpt lat="50.783553" lon="6.363118">
        <ele>242.900000</ele>
        <time>2009-07-19T18:31:05Z</time>
      </trkpt>
      <trkpt lat="50.783400" lon="6.362977">
        <ele>241.900000</ele>
        <time>2009-07-19T18:31:20Z</time>
      </trkpt>
      <trkpt lat="50.783278" lon="6.362865">
        <ele>241.400000</ele>
        <time>2009-07-19T18:31:32Z</time>
      </trkpt>
      <trkpt lat="50.783208" lon="6.362775">
        <ele>241.400000</ele>
        <time>2009-07-19T18:31:40Z</time>
      </trkpt>
      <trkpt lat="50.783157" lon="6.362748">
        <ele>241.400000</ele>
        <time>2009-07-19T18:31:44Z</time>
      </trkpt>
      <trkpt lat="50.783080" lon="6.362865">
        <ele>241.400000</ele>
        <time>2009-07-19T18:31:54Z</time>
      </trkpt>
      <trkpt lat="50.783180" lon="6.362927">
        <ele>240.900000</ele>
        <time>2009-07-19T18:32:03Z</time>
      </trkpt>
      <trkpt lat="50.783192" lon="6.363120">
        <ele>241.900000</ele>
        <time>2009-07-19T18:32:13Z</time>
      </trkpt>
      <trkpt lat="50.783225" lon="6.363297">
        <ele>242.400000</ele>
        <time>2009-07-19T18:32:23Z</time>
      </trkpt>
      <trkpt lat="50.783258" lon="6.363500">
        <ele>242.400000</ele>
        <time>2009-07-19T18:32:35Z</time>
      </trkpt>
      <trkpt lat="50.783267" lon="6.363580">
        <ele>241.900000</ele>
        <time>2009-07-19T18:32:39Z</time>
      </trkpt>
      <trkpt lat="50.783335" lon="6.363853">
        <ele>241.900000</ele>
        <time>2009-07-19T18:32:55Z</time>
      </trkpt>
      <trkpt lat="50.783350" lon="6.363892">
        <ele>241.400000</ele>
        <time>2009-07-19T18:32:58Z</time>
      </trkpt>
      <trkpt lat="50.783375" lon="6.364110">
        <ele>241.900000</ele>
        <time>2009-07-19T18:33:10Z</time>
      </trkpt>
      <trkpt lat="50.783395" lon="6.364290">
        <ele>240.000000</ele>
        <time>2009-07-19T18:33:20Z</time>
      </trkpt>
      <trkpt lat="50.783397" lon="6.364320">
        <ele>241.900000</ele>
        <time>2009-07-19T18:33:21Z</time>
      </trkpt>
      <trkpt lat="50.783412" lon="6.364445">
        <ele>241.900000</ele>
        <time>2009-07-19T18:33:28Z</time>
      </trkpt>
      <trkpt lat="50.783432" lon="6.364650">
        <ele>240.900000</ele>
        <time>2009-07-19T18:33:40Z</time>
      </trkpt>
      <trkpt lat="50.783442" lon="6.364748">
        <ele>240.000000</ele>
        <time>2009-07-19T18:33:45Z</time>
      </trkpt>
      <trkpt lat="50.783520" lon="6.365017">
        <ele>239.500000</ele>
        <time>2009-07-19T18:34:01Z</time>
      </trkpt>
      <trkpt lat="50.783595" lon="6.365252">
        <ele>238.500000</ele>
        <time>2009-07-19T18:34:15Z</time>
      </trkpt>
      <trkpt lat="50.783692" lon="6.365452">
        <ele>237.600000</ele>
        <time>2009-07-19T18:34:29Z</time>
      </trkpt>
      <trkpt lat="50.783708" lon="6.365455">
        <ele>238.500000</ele>
        <time>2009-07-19T18:34:31Z</time>
      </trkpt>
      <trkpt lat="50.783747" lon="6.365578">
        <ele>237.600000</ele>
        <time>2009-07-19T18:34:38Z</time>
      </trkpt>
      <trkpt lat="50.783848" lon="6.365852">
        <ele>236.100000</ele>
        <time>2009-07-19T18:34:55Z</time>
      </trkpt>
      <trkpt lat="50.783970" lon="6.366132">
        <ele>235.700000</ele>
        <time>2009-07-19T18:35:14Z</time>
      </trkpt>
      <trkpt lat="50.783985" lon="6.366200">
        <ele>235.200000</ele>
        <time>2009-07-19T18:35:18Z</time>
      </trkpt>
      <trkpt lat="50.784080" lon="6.366442">
        <ele>234.200000</ele>
        <time>2009-07-19T18:35:33Z</time>
      </trkpt>
      <trkpt lat="50.784148" lon="6.366722">
        <ele>233.300000</ele>
        <time>2009-07-19T18:35:50Z</time>
      </trkpt>
      <trkpt lat="50.784193" lon="6.366900">
        <ele>231.800000</ele>
        <time>2009-07-19T18:36:00Z</time>
      </trkpt>
      <trkpt lat="50.784215" lon="6.367217">
        <ele>230.400000</ele>
        <time>2009-07-19T18:36:17Z</time>
      </trkpt>
      <trkpt lat="50.784247" lon="6.367455">
        <ele>228.900000</ele>
        <time>2009-07-19T18:36:31Z</time>
      </trkpt>
      <trkpt lat="50.784315" lon="6.367697">
        <ele>227.500000</ele>
        <time>2009-07-19T18:36:45Z</time>
      </trkpt>
      <trkpt lat="50.784330" lon="6.367920">
        <ele>226.000000</ele>
        <time>2009-07-19T18:36:57Z</time>
      </trkpt>
      <trkpt lat="50.784353" lon="6.368120">
        <ele>225.100000</ele>
        <time>2009-07-19T18:37:08Z</time>
      </trkpt>
      <trkpt lat="50.784377" lon="6.368277">
        <ele>223.200000</ele>
        <time>2009-07-19T18:37:17Z</time>
      </trkpt>
      <trkpt lat="50.784405" lon="6.368513">
        <ele>222.700000</ele>
        <time>2009-07-19T18:37:30Z</time>
      </trkpt>
      <trkpt lat="50.784435" lon="6.368758">
        <ele>221.700000</ele>
        <time>2009-07-19T18:37:44Z</time>
      </trkpt>
      <trkpt lat="50.784457" lon="6.368920">
        <ele>221.200000</ele>
        <time>2009-07-19T18:37:53Z</time>
      </trkpt>
      <trkpt lat="50.784488" lon="6.369130">
        <ele>220.300000</ele>
        <time>2009-07-19T18:38:05Z</time>
      </trkpt>
      <trkpt lat="50.784498" lon="6.369283">
        <ele>220.300000</ele>
        <time>2009-07-19T18:38:13Z</time>
      </trkpt>
      <trkpt lat="50.784503" lon="6.369473">
        <ele>219.800000</ele>
        <time>2009-07-19T18:38:23Z</time>
      </trkpt>
      <trkpt lat="50.784542" lon="6.369738">
        <ele>218.800000</ele>
        <time>2009-07-19T18:38:38Z</time>
      </trkpt>
      <trkpt lat="50.784563" lon="6.369962">
        <ele>218.400000</ele>
        <time>2009-07-19T18:38:50Z</time>
      </trkpt>
      <trkpt lat="50.784577" lon="6.370230">
        <ele>218.800000</ele>
        <time>2009-07-19T18:39:05Z</time>
      </trkpt>
      <trkpt lat="50.784523" lon="6.370738">
        <ele>217.900000</ele>
        <time>2009-07-19T18:39:33Z</time>
      </trkpt>
      <trkpt lat="50.784505" lon="6.370830">
        <ele>217.400000</ele>
        <time>2009-07-19T18:39:38Z</time>
      </trkpt>
      <trkpt lat="50.784505" lon="6.371247">
        <ele>216.400000</ele>
        <time>2009-07-19T18:40:01Z</time>
      </trkpt>
      <trkpt lat="50.784517" lon="6.371315">
        <ele>216.900000</ele>
        <time>2009-07-19T18:40:05Z</time>
      </trkpt>
      <trkpt lat="50.784567" lon="6.371500">
        <ele>216.400000</ele>
        <time>2009-07-19T18:40:16Z</time>
      </trkpt>
      <trkpt lat="50.784637" lon="6.371692">
        <ele>216.000000</ele>
        <time>2009-07-19T18:40:28Z</time>
      </trkpt>
      <trkpt lat="50.784690" lon="6.371888">
        <ele>215.000000</ele>
        <time>2009-07-19T18:40:40Z</time>
      </trkpt>
      <trkpt lat="50.784768" lon="6.372108">
        <ele>214.500000</ele>
        <time>2009-07-19T18:40:53Z</time>
      </trkpt>
      <trkpt lat="50.784810" lon="6.372287">
        <ele>214.000000</ele>
        <time>2009-07-19T18:41:04Z</time>
      </trkpt>
      <trkpt lat="50.784850" lon="6.372507">
        <ele>212.600000</ele>
        <time>2009-07-19T18:41:16Z</time>
      </trkpt>
      <trkpt lat="50.784865" lon="6.372577">
        <ele>213.100000</ele>
        <time>2009-07-19T18:41:20Z</time>
      </trkpt>
      <trkpt lat="50.784878" lon="6.372633">
        <ele>212.600000</ele>
        <time>2009-07-19T18:41:23Z</time>
      </trkpt>
      <trkpt lat="50.784938" lon="6.372922">
        <ele>211.600000</ele>
        <time>2009-07-19T18:41:40Z</time>
      </trkpt>
      <trkpt lat="50.785002" lon="6.373177">
        <ele>210.700000</ele>
        <time>2009-07-19T18:41:55Z</time>
      </trkpt>
      <trkpt lat="50.785067" lon="6.373398">
        <ele>209.700000</ele>
        <time>2009-07-19T18:42:08Z</time>
      </trkpt>
      <trkpt lat="50.785122" lon="6.373610">
        <ele>208.700000</ele>
        <time>2009-07-19T18:42:21Z</time>
      </trkpt>
      <trkpt lat="50.785173" lon="6.373843">
        <ele>207.800000</ele>
        <time>2009-07-19T18:42:34Z</time>
      </trkpt>
      <trkpt lat="50.785182" lon="6.374163">
        <ele>207.800000</ele>
        <time>2009-07-19T18:42:52Z</time>
      </trkpt>
      <trkpt lat="50.785207" lon="6.374357">
        <ele>207.800000</ele>
        <time>2009-07-19T18:43:02Z</time>
      </trkpt>
      <trkpt lat="50.785300" lon="6.374628">
        <ele>206.300000</ele>
        <time>2009-07-19T18:43:19Z</time>
      </trkpt>
      <trkpt lat="50.785393" lon="6.374870">
        <ele>206.300000</ele>
        <time>2009-07-19T18:43:34Z</time>
      </trkpt>
      <trkpt lat="50.785432" lon="6.374942">
        <ele>206.300000</ele>
        <time>2009-07-19T18:43:40Z</time>
      </trkpt>
      <trkpt lat="50.785545" lon="6.375157">
        <ele>205.900000</ele>
        <time>2009-07-19T18:43:55Z</time>
      </trkpt>
      <trkpt lat="50.785672" lon="6.375370">
        <ele>205.400000</ele>
        <time>2009-07-19T18:44:11Z</time>
      </trkpt>
      <trkpt lat="50.785788" lon="6.375592">
        <ele>204.900000</ele>
        <time>2009-07-19T18:44:27Z</time>
      </trkpt>
      <trkpt lat="50.785803" lon="6.375632">
        <ele>204.400000</ele>
        <time>2009-07-19T18:44:29Z</time>
      </trkpt>
      <trkpt lat="50.785893" lon="6.375808">
        <ele>203.500000</ele>
        <time>2009-07-19T18:44:41Z</time>
      </trkpt>
      <trkpt lat="50.785988" lon="6.375950">
        <ele>203.000000</ele>
        <time>2009-07-19T18:44:53Z</time>
      </trkpt>
      <trkpt lat="50.786107" lon="6.376185">
        <ele>202.500000</ele>
        <time>2009-07-19T18:45:09Z</time>
      </trkpt>
      <trkpt lat="50.786203" lon="6.376360">
        <ele>201.100000</ele>
        <time>2009-07-19T18:45:22Z</time>
      </trkpt>
      <trkpt lat="50.786333" lon="6.376560">
        <ele>200.600000</ele>
        <time>2009-07-19T18:45:37Z</time>
      </trkpt>
      <trkpt lat="50.786440" lon="6.376772">
        <ele>199.100000</ele>
        <time>2009-07-19T18:45:52Z</time>
      </trkpt>
      <trkpt lat="50.786558" lon="6.376965">
        <ele>197.700000</ele>
        <time>2009-07-19T18:46:07Z</time>
      </trkpt>
      <trkpt lat="50.786107" lon="6.376185">
        <ele>197.200000</ele>
        <time>2009-07-19T18:47:04Z</time>
      </trkpt>
      <trkpt lat="50.786107" lon="6.376185">
        <ele>196.700000</ele>
        <time>2009-07-19T18:47:04Z</time>
      </trkpt>
      <trkpt lat="50.786107" lon="6.376185">
        <ele>222.200000</ele>
        <time>2009-07-19T18:47:04Z</time>
      </trkpt>
      <trkpt lat="50.786817" lon="6.377540">
        <ele>222.200000</ele>
        <time>2009-07-19T18:48:40Z</time>
      </trkpt>
      <trkpt lat="50.786862" lon="6.377620">
        <ele>219.800000</ele>
        <time>2009-07-19T18:48:46Z</time>
      </trkpt>
      <trkpt lat="50.786882" lon="6.377643">
        <ele>219.800000</ele>
        <time>2009-07-19T18:48:48Z</time>
      </trkpt>
      <trkpt lat="50.786985" lon="6.377820">
        <ele>215.500000</ele>
        <time>2009-07-19T18:49:01Z</time>
      </trkpt>
      <trkpt lat="50.787060" lon="6.377953">
        <ele>213.600000</ele>
        <time>2009-07-19T18:49:11Z</time>
      </trkpt>
      <trkpt lat="50.787175" lon="6.378117">
        <ele>210.700000</ele>
        <time>2009-07-19T18:49:24Z</time>
      </trkpt>
      <trkpt lat="50.787187" lon="6.378128">
        <ele>210.700000</ele>
        <time>2009-07-19T18:49:25Z</time>
      </trkpt>
      <trkpt lat="50.787240" lon="6.378250">
        <ele>208.700000</ele>
        <time>2009-07-19T18:49:34Z</time>
      </trkpt>
      <trkpt lat="50.787290" lon="6.378397">
        <ele>206.300000</ele>
        <time>2009-07-19T18:49:42Z</time>
      </trkpt>
      <trkpt lat="50.787303" lon="6.378462">
        <ele>204.900000</ele>
        <time>2009-07-19T18:49:46Z</time>
      </trkpt>
      <trkpt lat="50.787340" lon="6.378528">
        <ele>203.000000</ele>
        <time>2009-07-19T18:49:51Z</time>
      </trkpt>
      <trkpt lat="50.787378" lon="6.378618">
        <ele>199.100000</ele>
        <time>2009-07-19T18:49:57Z</time>
      </trkpt>
      <trkpt lat="50.787413" lon="6.378708">
        <ele>196.700000</ele>
        <time>2009-07-19T18:50:03Z</time>
      </trkpt>
      <trkpt lat="50.787433" lon="6.378773">
        <ele>194.800000</ele>
        <time>2009-07-19T18:50:07Z</time>
      </trkpt>
      <trkpt lat="50.787455" lon="6.378840">
        <ele>191.900000</ele>
        <time>2009-07-19T18:50:11Z</time>
      </trkpt>
      <trkpt lat="50.787487" lon="6.378937">
        <ele>188.100000</ele>
        <time>2009-07-19T18:50:17Z</time>
      </trkpt>
      <trkpt lat="50.787515" lon="6.379010">
        <ele>185.200000</ele>
        <time>2009-07-19T18:50:21Z</time>
      </trkpt>
      <trkpt lat="50.787520" lon="6.379032">
        <ele>185.200000</ele>
        <time>2009-07-19T18:50:23Z</time>
      </trkpt>
      <trkpt lat="50.787547" lon="6.379115">
        <ele>182.300000</ele>
        <time>2009-07-19T18:50:28Z</time>
      </trkpt>
      <trkpt lat="50.787588" lon="6.379225">
        <ele>178.900000</ele>
        <time>2009-07-19T18:50:35Z</time>
      </trkpt>
      <trkpt lat="50.787595" lon="6.379248">
        <ele>178.900000</ele>
        <time>2009-07-19T18:50:36Z</time>
      </trkpt>
      <trkpt lat="50.787610" lon="6.379282">
        <ele>177.500000</ele>
        <time>2009-07-19T18:50:38Z</time>
      </trkpt>
      <trkpt lat="50.787645" lon="6.379370">
        <ele>174.600000</ele>
        <time>2009-07-19T18:50:44Z</time>
      </trkpt>
      <trkpt lat="50.787675" lon="6.379443">
        <ele>172.700000</ele>
        <time>2009-07-19T18:50:49Z</time>
      </trkpt>
      <trkpt lat="50.787712" lon="6.379625">
        <ele>169.300000</ele>
        <time>2009-07-19T18:50:59Z</time>
      </trkpt>
      <trkpt lat="50.787725" lon="6.379672">
        <ele>168.800000</ele>
        <time>2009-07-19T18:51:02Z</time>
      </trkpt>
      <trkpt lat="50.787757" lon="6.379763">
        <ele>166.900000</ele>
        <time>2009-07-19T18:51:08Z</time>
      </trkpt>
      <trkpt lat="50.787773" lon="6.379802">
        <ele>166.400000</ele>
        <time>2009-07-19T18:51:10Z</time>
      </trkpt>
      <trkpt lat="50.787882" lon="6.380013">
        <ele>164.000000</ele>
        <time>2009-07-19T18:51:25Z</time>
      </trkpt>
      <trkpt lat="50.787943" lon="6.380193">
        <ele>162.600000</ele>
        <time>2009-07-19T18:51:36Z</time>
      </trkpt>
      <trkpt lat="50.788045" lon="6.380360">
        <ele>161.200000</ele>
        <time>2009-07-19T18:51:49Z</time>
      </trkpt>
      <trkpt lat="50.788147" lon="6.380618">
        <ele>161.200000</ele>
        <time>2009-07-19T18:52:05Z</time>
      </trkpt>
      <trkpt lat="50.788250" lon="6.380820">
        <ele>160.200000</ele>
        <time>2009-07-19T18:52:19Z</time>
      </trkpt>
      <trkpt lat="50.788380" lon="6.381047">
        <ele>158.800000</ele>
        <time>2009-07-19T18:52:36Z</time>
      </trkpt>
      <trkpt lat="50.788463" lon="6.381148">
        <ele>157.800000</ele>
        <time>2009-07-19T18:52:45Z</time>
      </trkpt>
      <trkpt lat="50.788535" lon="6.381322">
        <ele>158.300000</ele>
        <time>2009-07-19T18:52:56Z</time>
      </trkpt>
      <trkpt lat="50.788638" lon="6.381473">
        <ele>156.800000</ele>
        <time>2009-07-19T18:53:09Z</time>
      </trkpt>
      <trkpt lat="50.788733" lon="6.381627">
        <ele>155.900000</ele>
        <time>2009-07-19T18:53:20Z</time>
      </trkpt>
      <trkpt lat="50.788815" lon="6.381783">
        <ele>155.400000</ele>
        <time>2009-07-19T18:53:31Z</time>
      </trkpt>
      <trkpt lat="50.788927" lon="6.381960">
        <ele>154.400000</ele>
        <time>2009-07-19T18:53:45Z</time>
      </trkpt>
      <trkpt lat="50.789027" lon="6.382128">
        <ele>154.900000</ele>
        <time>2009-07-19T18:53:58Z</time>
      </trkpt>
      <trkpt lat="50.789143" lon="6.382303">
        <ele>153.900000</ele>
        <time>2009-07-19T18:54:11Z</time>
      </trkpt>
      <trkpt lat="50.789100" lon="6.382365">
        <ele>152.500000</ele>
        <time>2009-07-19T18:54:16Z</time>
      </trkpt>
      <trkpt lat="50.789000" lon="6.382402">
        <ele>152.500000</ele>
        <time>2009-07-19T18:54:25Z</time>
      </trkpt>
      <trkpt lat="50.789010" lon="6.382575">
        <ele>153.500000</ele>
        <time>2009-07-19T18:54:35Z</time>
      </trkpt>
      <trkpt lat="50.789118" lon="6.382598">
        <ele>153.500000</ele>
        <time>2009-07-19T18:54:44Z</time>
      </trkpt>
      <trkpt lat="50.789193" lon="6.382657">
        <ele>153.900000</ele>
        <time>2009-07-19T18:54:51Z</time>
      </trkpt>
      <trkpt lat="50.789232" lon="6.382690">
        <ele>154.400000</ele>
        <time>2009-07-19T18:54:55Z</time>
      </trkpt>
      <trkpt lat="50.789365" lon="6.382747">
        <ele>154.400000</ele>
        <time>2009-07-19T18:55:07Z</time>
      </trkpt>
      <trkpt lat="50.789510" lon="6.382727">
        <ele>154.900000</ele>
        <time>2009-07-19T18:55:19Z</time>
      </trkpt>
      <trkpt lat="50.789630" lon="6.382802">
        <ele>154.900000</ele>
        <time>2009-07-19T18:55:31Z</time>
      </trkpt>
      <trkpt lat="50.789747" lon="6.382908">
        <ele>155.400000</ele>
        <time>2009-07-19T18:55:42Z</time>
      </trkpt>
      <trkpt lat="50.789850" lon="6.383013">
        <ele>154.900000</ele>
        <time>2009-07-19T18:55:53Z</time>
      </trkpt>
      <trkpt lat="50.789968" lon="6.383132">
        <ele>154.400000</ele>
        <time>2009-07-19T18:56:05Z</time>
      </trkpt>
      <trkpt lat="50.790077" lon="6.383245">
        <ele>153.500000</ele>
        <time>2009-07-19T18:56:16Z</time>
      </trkpt>
      <trkpt lat="50.790143" lon="6.383367">
        <ele>155.400000</ele>
        <time>2009-07-19T18:56:25Z</time>
      </trkpt>
      <trkpt lat="50.790212" lon="6.383493">
        <ele>153.900000</ele>
        <time>2009-07-19T18:56:34Z</time>
      </trkpt>
      <trkpt lat="50.790318" lon="6.383515">
        <ele>153.900000</ele>
        <time>2009-07-19T18:56:43Z</time>
      </trkpt>
      <trkpt lat="50.790465" lon="6.383595">
        <ele>153.900000</ele>
        <time>2009-07-19T18:56:56Z</time>
      </trkpt>
      <trkpt lat="50.790588" lon="6.383693">
        <ele>153.900000</ele>
        <time>2009-07-19T18:57:08Z</time>
      </trkpt>
      <trkpt lat="50.790663" lon="6.383728">
        <ele>153.500000</ele>
        <time>2009-07-19T18:57:15Z</time>
      </trkpt>
      <trkpt lat="50.790827" lon="6.383822">
        <ele>152.500000</ele>
        <time>2009-07-19T18:57:30Z</time>
      </trkpt>
      <trkpt lat="50.790967" lon="6.383950">
        <ele>153.000000</ele>
        <time>2009-07-19T18:57:44Z</time>
      </trkpt>
      <trkpt lat="50.790968" lon="6.384048">
        <ele>151.500000</ele>
        <time>2009-07-19T18:57:49Z</time>
      </trkpt>
      <trkpt lat="50.790987" lon="6.384132">
        <ele>152.000000</ele>
        <time>2009-07-19T18:57:54Z</time>
      </trkpt>
      <trkpt lat="50.790933" lon="6.384312">
        <ele>150.600000</ele>
        <time>2009-07-19T18:58:05Z</time>
      </trkpt>
      <trkpt lat="50.790872" lon="6.384525">
        <ele>150.100000</ele>
        <time>2009-07-19T18:58:18Z</time>
      </trkpt>
      <trkpt lat="50.790800" lon="6.384777">
        <ele>149.600000</ele>
        <time>2009-07-19T18:58:33Z</time>
      </trkpt>
      <trkpt lat="50.790777" lon="6.384830">
        <ele>149.100000</ele>
        <time>2009-07-19T18:58:36Z</time>
      </trkpt>
      <trkpt lat="50.790723" lon="6.385008">
        <ele>148.200000</ele>
        <time>2009-07-19T18:58:47Z</time>
      </trkpt>
      <trkpt lat="50.790713" lon="6.385077">
        <ele>149.100000</ele>
        <time>2009-07-19T18:58:51Z</time>
      </trkpt>
      <trkpt lat="50.790682" lon="6.385293">
        <ele>147.700000</ele>
        <time>2009-07-19T18:59:03Z</time>
      </trkpt>
      <trkpt lat="50.790612" lon="6.385617">
        <ele>146.700000</ele>
        <time>2009-07-19T18:59:21Z</time>
      </trkpt>
      <trkpt lat="50.790598" lon="6.385763">
        <ele>146.700000</ele>
        <time>2009-07-19T18:59:30Z</time>
      </trkpt>
      <trkpt lat="50.790647" lon="6.386067">
        <ele>145.800000</ele>
        <time>2009-07-19T18:59:47Z</time>
      </trkpt>
      <trkpt lat="50.790695" lon="6.386380">
        <ele>144.800000</ele>
        <time>2009-07-19T19:00:04Z</time>
      </trkpt>
      <trkpt lat="50.790772" lon="6.386707">
        <ele>142.900000</ele>
        <time>2009-07-19T19:00:23Z</time>
      </trkpt>
      <trkpt lat="50.790832" lon="6.386967">
        <ele>143.400000</ele>
        <time>2009-07-19T19:00:38Z</time>
      </trkpt>
      <trkpt lat="50.790903" lon="6.387233">
        <ele>141.500000</ele>
        <time>2009-07-19T19:00:54Z</time>
      </trkpt>
      <trkpt lat="50.790998" lon="6.387550">
        <ele>141.000000</ele>
        <time>2009-07-19T19:01:13Z</time>
      </trkpt>
      <trkpt lat="50.791072" lon="6.387798">
        <ele>140.500000</ele>
        <time>2009-07-19T19:01:28Z</time>
      </trkpt>
      <trkpt lat="50.791133" lon="6.388058">
        <ele>140.000000</ele>
        <time>2009-07-19T19:01:43Z</time>
      </trkpt>
      <trkpt lat="50.791190" lon="6.388333">
        <ele>139.500000</ele>
        <time>2009-07-19T19:01:59Z</time>
      </trkpt>
      <trkpt lat="50.791245" lon="6.388592">
        <ele>139.000000</ele>
        <time>2009-07-19T19:02:14Z</time>
      </trkpt>
      <trkpt lat="50.791330" lon="6.388878">
        <ele>139.000000</ele>
        <time>2009-07-19T19:02:31Z</time>
      </trkpt>
      <trkpt lat="50.791403" lon="6.389127">
        <ele>138.600000</ele>
        <time>2009-07-19T19:02:46Z</time>
      </trkpt>
      <trkpt lat="50.791418" lon="6.389358">
        <ele>137.600000</ele>
        <time>2009-07-19T19:02:59Z</time>
      </trkpt>
      <trkpt lat="50.791503" lon="6.389610">
        <ele>138.600000</ele>
        <time>2009-07-19T19:03:14Z</time>
      </trkpt>
      <trkpt lat="50.791565" lon="6.389752">
        <ele>138.600000</ele>
        <time>2009-07-19T19:03:24Z</time>
      </trkpt>
      <trkpt lat="50.791547" lon="6.389850">
        <ele>139.500000</ele>
        <time>2009-07-19T19:03:29Z</time>
      </trkpt>
      <trkpt lat="50.791467" lon="6.389902">
        <ele>139.000000</ele>
        <time>2009-07-19T19:03:36Z</time>
      </trkpt>
      <trkpt lat="50.791378" lon="6.389878">
        <ele>139.000000</ele>
        <time>2009-07-19T19:03:44Z</time>
      </trkpt>
      <trkpt lat="50.791170" lon="6.389843">
        <ele>139.000000</ele>
        <time>2009-07-19T19:04:02Z</time>
      </trkpt>
      <trkpt lat="50.790993" lon="6.389825">
        <ele>139.000000</ele>
        <time>2009-07-19T19:04:17Z</time>
      </trkpt>
      <trkpt lat="50.790948" lon="6.389798">
        <ele>139.500000</ele>
        <time>2009-07-19T19:04:22Z</time>
      </trkpt>
      <trkpt lat="50.790802" lon="6.389730">
        <ele>139.500000</ele>
        <time>2009-07-19T19:04:35Z</time>
      </trkpt>
      <trkpt lat="50.790700" lon="6.389688">
        <ele>140.000000</ele>
        <time>2009-07-19T19:04:44Z</time>
      </trkpt>
      <trkpt lat="50.790573" lon="6.389597">
        <ele>140.500000</ele>
        <time>2009-07-19T19:04:56Z</time>
      </trkpt>
      <trkpt lat="50.790528" lon="6.389577">
        <ele>140.000000</ele>
        <time>2009-07-19T19:05:00Z</time>
      </trkpt>
      <trkpt lat="50.790365" lon="6.389512">
        <ele>141.000000</ele>
        <time>2009-07-19T19:05:14Z</time>
      </trkpt>
      <trkpt lat="50.790355" lon="6.389505">
        <ele>141.000000</ele>
        <time>2009-07-19T19:05:15Z</time>
      </trkpt>
      <trkpt lat="50.790213" lon="6.389423">
        <ele>141.000000</ele>
        <time>2009-07-19T19:05:28Z</time>
      </trkpt>
      <trkpt lat="50.790062" lon="6.389398">
        <ele>141.500000</ele>
        <time>2009-07-19T19:05:41Z</time>
      </trkpt>
      <trkpt lat="50.789817" lon="6.389257">
        <ele>141.900000</ele>
        <time>2009-07-19T19:06:04Z</time>
      </trkpt>
      <trkpt lat="50.789780" lon="6.389233">
        <ele>142.400000</ele>
        <time>2009-07-19T19:06:07Z</time>
      </trkpt>
      <trkpt lat="50.789625" lon="6.389130">
        <ele>142.900000</ele>
        <time>2009-07-19T19:06:22Z</time>
      </trkpt>
      <trkpt lat="50.789432" lon="6.389022">
        <ele>143.400000</ele>
        <time>2009-07-19T19:06:39Z</time>
      </trkpt>
      <trkpt lat="50.789295" lon="6.388908">
        <ele>143.400000</ele>
        <time>2009-07-19T19:06:53Z</time>
      </trkpt>
      <trkpt lat="50.789222" lon="6.388895">
        <ele>144.300000</ele>
        <time>2009-07-19T19:06:59Z</time>
      </trkpt>
      <trkpt lat="50.789062" lon="6.388852">
        <ele>144.800000</ele>
        <time>2009-07-19T19:07:13Z</time>
      </trkpt>
      <trkpt lat="50.788898" lon="6.388842">
        <ele>144.800000</ele>
        <time>2009-07-19T19:07:27Z</time>
      </trkpt>
      <trkpt lat="50.788737" lon="6.388730">
        <ele>144.800000</ele>
        <time>2009-07-19T19:07:42Z</time>
      </trkpt>
      <trkpt lat="50.788727" lon="6.388728">
        <ele>144.800000</ele>
        <time>2009-07-19T19:07:43Z</time>
      </trkpt>
      <trkpt lat="50.788522" lon="6.388660">
        <ele>145.300000</ele>
        <time>2009-07-19T19:08:01Z</time>
      </trkpt>
      <trkpt lat="50.788452" lon="6.388600">
        <ele>144.300000</ele>
        <time>2009-07-19T19:08:08Z</time>
      </trkpt>
      <trkpt lat="50.788375" lon="6.388572">
        <ele>144.800000</ele>
        <time>2009-07-19T19:08:15Z</time>
      </trkpt>
      <trkpt lat="50.788230" lon="6.388512">
        <ele>145.300000</ele>
        <time>2009-07-19T19:08:28Z</time>
      </trkpt>
      <trkpt lat="50.788093" lon="6.388440">
        <ele>145.800000</ele>
        <time>2009-07-19T19:08:40Z</time>
      </trkpt>
      <trkpt lat="50.787953" lon="6.388358">
        <ele>145.800000</ele>
        <time>2009-07-19T19:08:53Z</time>
      </trkpt>
      <trkpt lat="50.787798" lon="6.388310">
        <ele>145.300000</ele>
        <time>2009-07-19T19:09:07Z</time>
      </trkpt>
      <trkpt lat="50.787640" lon="6.388200">
        <ele>146.300000</ele>
        <time>2009-07-19T19:09:21Z</time>
      </trkpt>
      <trkpt lat="50.787490" lon="6.388122">
        <ele>146.700000</ele>
        <time>2009-07-19T19:09:35Z</time>
      </trkpt>
      <trkpt lat="50.787378" lon="6.388045">
        <ele>146.700000</ele>
        <time>2009-07-19T19:09:46Z</time>
      </trkpt>
      <trkpt lat="50.787270" lon="6.388010">
        <ele>146.300000</ele>
        <time>2009-07-19T19:09:55Z</time>
      </trkpt>
      <trkpt lat="50.787130" lon="6.387922">
        <ele>146.300000</ele>
        <time>2009-07-19T19:10:08Z</time>
      </trkpt>
      <trkpt lat="50.786997" lon="6.387852">
        <ele>146.300000</ele>
        <time>2009-07-19T19:10:20Z</time>
      </trkpt>
      <trkpt lat="50.786858" lon="6.387797">
        <ele>146.300000</ele>
        <time>2009-07-19T19:10:32Z</time>
      </trkpt>
      <trkpt lat="50.786700" lon="6.387677">
        <ele>146.700000</ele>
        <time>2009-07-19T19:10:48Z</time>
      </trkpt>
      <trkpt lat="50.786603" lon="6.387658">
        <ele>146.700000</ele>
        <time>2009-07-19T19:10:56Z</time>
      </trkpt>
      <trkpt lat="50.786522" lon="6.387592">
        <ele>146.700000</ele>
        <time>2009-07-19T19:11:04Z</time>
      </trkpt>
      <trkpt lat="50.786360" lon="6.387517">
        <ele>146.300000</ele>
        <time>2009-07-19T19:11:18Z</time>
      </trkpt>
      <trkpt lat="50.786227" lon="6.387448">
        <ele>146.700000</ele>
        <time>2009-07-19T19:11:30Z</time>
      </trkpt>
      <trkpt lat="50.786215" lon="6.387440">
        <ele>147.200000</ele>
        <time>2009-07-19T19:11:31Z</time>
      </trkpt>
      <trkpt lat="50.786188" lon="6.387427">
        <ele>147.700000</ele>
        <time>2009-07-19T19:11:34Z</time>
      </trkpt>
      <trkpt lat="50.786035" lon="6.387370">
        <ele>147.200000</ele>
        <time>2009-07-19T19:11:47Z</time>
      </trkpt>
      <trkpt lat="50.785885" lon="6.387345">
        <ele>147.200000</ele>
        <time>2009-07-19T19:12:00Z</time>
      </trkpt>
      <trkpt lat="50.785728" lon="6.387270">
        <ele>147.200000</ele>
        <time>2009-07-19T19:12:15Z</time>
      </trkpt>
      <trkpt lat="50.785630" lon="6.387195">
        <ele>147.200000</ele>
        <time>2009-07-19T19:12:24Z</time>
      </trkpt>
      <trkpt lat="50.785513" lon="6.387205">
        <ele>148.200000</ele>
        <time>2009-07-19T19:12:34Z</time>
      </trkpt>
      <trkpt lat="50.785427" lon="6.387165">
        <ele>148.200000</ele>
        <time>2009-07-19T19:12:42Z</time>
      </trkpt>
      <trkpt lat="50.785343" lon="6.387080">
        <ele>148.700000</ele>
        <time>2009-07-19T19:12:50Z</time>
      </trkpt>
      <trkpt lat="50.785237" lon="6.387025">
        <ele>148.200000</ele>
        <time>2009-07-19T19:13:00Z</time>
      </trkpt>
      <trkpt lat="50.785097" lon="6.386977">
        <ele>149.600000</ele>
        <time>2009-07-19T19:13:12Z</time>
      </trkpt>
      <trkpt lat="50.785032" lon="6.386915">
        <ele>153.000000</ele>
        <time>2009-07-19T19:13:19Z</time>
      </trkpt>
      <trkpt lat="50.785033" lon="6.386917">
        <ele>149.100000</ele>
        <time>2009-07-19T19:13:19Z</time>
      </trkpt>
      <trkpt lat="50.785040" lon="6.386923">
        <ele>149.600000</ele>
        <time>2009-07-19T19:13:20Z</time>
      </trkpt>
      <trkpt lat="50.785033" lon="6.386955">
        <ele>149.600000</ele>
        <time>2009-07-19T19:13:22Z</time>
      </trkpt>
      <trkpt lat="50.784943" lon="6.387037">
        <ele>151.100000</ele>
        <time>2009-07-19T19:13:30Z</time>
      </trkpt>
      <trkpt lat="50.784835" lon="6.387158">
        <ele>151.100000</ele>
        <time>2009-07-19T19:13:42Z</time>
      </trkpt>
      <trkpt lat="50.784707" lon="6.387247">
        <ele>151.100000</ele>
        <time>2009-07-19T19:13:54Z</time>
      </trkpt>
      <trkpt lat="50.784562" lon="6.387413">
        <ele>152.000000</ele>
        <time>2009-07-19T19:14:09Z</time>
      </trkpt>
      <trkpt lat="50.784467" lon="6.387525">
        <ele>152.000000</ele>
        <time>2009-07-19T19:14:19Z</time>
      </trkpt>
      <trkpt lat="50.784350" lon="6.387655">
        <ele>153.000000</ele>
        <time>2009-07-19T19:14:32Z</time>
      </trkpt>
      <trkpt lat="50.784323" lon="6.387723">
        <ele>155.900000</ele>
        <time>2009-07-19T19:14:36Z</time>
      </trkpt>
      <trkpt lat="50.784328" lon="6.387725">
        <ele>153.900000</ele>
        <time>2009-07-19T19:14:36Z</time>
      </trkpt>
      <trkpt lat="50.784422" lon="6.387672">
        <ele>152.000000</ele>
        <time>2009-07-19T19:14:45Z</time>
      </trkpt>
      <trkpt lat="50.784450" lon="6.387645">
        <ele>152.000000</ele>
        <time>2009-07-19T19:14:48Z</time>
      </trkpt>
      <trkpt lat="50.784580" lon="6.387478">
        <ele>151.100000</ele>
        <time>2009-07-19T19:15:02Z</time>
      </trkpt>
      <trkpt lat="50.784683" lon="6.387373">
        <ele>151.100000</ele>
        <time>2009-07-19T19:15:13Z</time>
      </trkpt>
      <trkpt lat="50.784770" lon="6.387240">
        <ele>150.600000</ele>
        <time>2009-07-19T19:15:23Z</time>
      </trkpt>
      <trkpt lat="50.784868" lon="6.387078">
        <ele>150.600000</ele>
        <time>2009-07-19T19:15:36Z</time>
      </trkpt>
      <trkpt lat="50.784907" lon="6.387008">
        <ele>150.600000</ele>
        <time>2009-07-19T19:15:40Z</time>
      </trkpt>
      <trkpt lat="50.784943" lon="6.386862">
        <ele>151.100000</ele>
        <time>2009-07-19T19:15:49Z</time>
      </trkpt>
      <trkpt lat="50.784910" lon="6.386863">
        <ele>152.500000</ele>
        <time>2009-07-19T19:15:52Z</time>
      </trkpt>
      <trkpt lat="50.784735" lon="6.386718">
        <ele>152.500000</ele>
        <time>2009-07-19T19:16:09Z</time>
      </trkpt>
      <trkpt lat="50.784715" lon="6.386720">
        <ele>152.500000</ele>
        <time>2009-07-19T19:16:11Z</time>
      </trkpt>
      <trkpt lat="50.784558" lon="6.386682">
        <ele>152.500000</ele>
        <time>2009-07-19T19:16:24Z</time>
      </trkpt>
      <trkpt lat="50.784500" lon="6.386658">
        <ele>152.500000</ele>
        <time>2009-07-19T19:16:29Z</time>
      </trkpt>
      <trkpt lat="50.784440" lon="6.386658">
        <ele>153.000000</ele>
        <time>2009-07-19T19:16:35Z</time>
      </trkpt>
      <trkpt lat="50.784390" lon="6.386660">
        <ele>153.000000</ele>
        <time>2009-07-19T19:16:39Z</time>
      </trkpt>
      <trkpt lat="50.784233" lon="6.386633">
        <ele>153.500000</ele>
        <time>2009-07-19T19:16:53Z</time>
      </trkpt>
      <trkpt lat="50.784077" lon="6.386573">
        <ele>153.500000</ele>
        <time>2009-07-19T19:17:06Z</time>
      </trkpt>
      <trkpt lat="50.783913" lon="6.386527">
        <ele>154.400000</ele>
        <time>2009-07-19T19:17:21Z</time>
      </trkpt>
      <trkpt lat="50.783742" lon="6.386457">
        <ele>155.400000</ele>
        <time>2009-07-19T19:17:36Z</time>
      </trkpt>
      <trkpt lat="50.783645" lon="6.386352">
        <ele>156.400000</ele>
        <time>2009-07-19T19:17:46Z</time>
      </trkpt>
      <trkpt lat="50.783527" lon="6.386248">
        <ele>156.400000</ele>
        <time>2009-07-19T19:17:58Z</time>
      </trkpt>
      <trkpt lat="50.783500" lon="6.386223">
        <ele>156.400000</ele>
        <time>2009-07-19T19:18:00Z</time>
      </trkpt>
      <trkpt lat="50.783327" lon="6.386123">
        <ele>156.400000</ele>
        <time>2009-07-19T19:18:16Z</time>
      </trkpt>
      <trkpt lat="50.783203" lon="6.386045">
        <ele>157.800000</ele>
        <time>2009-07-19T19:18:28Z</time>
      </trkpt>
      <trkpt lat="50.783110" lon="6.385960">
        <ele>158.800000</ele>
        <time>2009-07-19T19:18:37Z</time>
      </trkpt>
      <trkpt lat="50.782998" lon="6.385907">
        <ele>158.800000</ele>
        <time>2009-07-19T19:18:47Z</time>
      </trkpt>
      <trkpt lat="50.782825" lon="6.385792">
        <ele>159.200000</ele>
        <time>2009-07-19T19:19:03Z</time>
      </trkpt>
      <trkpt lat="50.782687" lon="6.385692">
        <ele>160.200000</ele>
        <time>2009-07-19T19:19:16Z</time>
      </trkpt>
      <trkpt lat="50.782582" lon="6.385605">
        <ele>161.600000</ele>
        <time>2009-07-19T19:19:26Z</time>
      </trkpt>
      <trkpt lat="50.782460" lon="6.385565">
        <ele>162.100000</ele>
        <time>2009-07-19T19:19:37Z</time>
      </trkpt>
      <trkpt lat="50.782363" lon="6.385535">
        <ele>162.100000</ele>
        <time>2009-07-19T19:19:46Z</time>
      </trkpt>
      <trkpt lat="50.782227" lon="6.385463">
        <ele>162.600000</ele>
        <time>2009-07-19T19:19:58Z</time>
      </trkpt>
      <trkpt lat="50.782117" lon="6.385442">
        <ele>164.000000</ele>
        <time>2009-07-19T19:20:08Z</time>
      </trkpt>
      <trkpt lat="50.782008" lon="6.385410">
        <ele>164.000000</ele>
        <time>2009-07-19T19:20:17Z</time>
      </trkpt>
      <trkpt lat="50.781842" lon="6.385357">
        <ele>165.000000</ele>
        <time>2009-07-19T19:20:32Z</time>
      </trkpt>
      <trkpt lat="50.781712" lon="6.385325">
        <ele>165.500000</ele>
        <time>2009-07-19T19:20:43Z</time>
      </trkpt>
      <trkpt lat="50.781550" lon="6.385273">
        <ele>165.500000</ele>
        <time>2009-07-19T19:20:57Z</time>
      </trkpt>
      <trkpt lat="50.781450" lon="6.385228">
        <ele>166.000000</ele>
        <time>2009-07-19T19:21:06Z</time>
      </trkpt>
      <trkpt lat="50.781318" lon="6.385168">
        <ele>166.400000</ele>
        <time>2009-07-19T19:21:18Z</time>
      </trkpt>
      <trkpt lat="50.781187" lon="6.385158">
        <ele>167.900000</ele>
        <time>2009-07-19T19:21:29Z</time>
      </trkpt>
      <trkpt lat="50.781058" lon="6.385098">
        <ele>169.300000</ele>
        <time>2009-07-19T19:21:41Z</time>
      </trkpt>
      <trkpt lat="50.780935" lon="6.385038">
        <ele>169.300000</ele>
        <time>2009-07-19T19:21:52Z</time>
      </trkpt>
      <trkpt lat="50.780803" lon="6.384942">
        <ele>170.300000</ele>
        <time>2009-07-19T19:22:05Z</time>
      </trkpt>
      <trkpt lat="50.780700" lon="6.384923">
        <ele>171.300000</ele>
        <time>2009-07-19T19:22:14Z</time>
      </trkpt>
      <trkpt lat="50.780610" lon="6.384838">
        <ele>171.300000</ele>
        <time>2009-07-19T19:22:23Z</time>
      </trkpt>
      <trkpt lat="50.780500" lon="6.384785">
        <ele>172.200000</ele>
        <time>2009-07-19T19:22:32Z</time>
      </trkpt>
      <trkpt lat="50.780330" lon="6.384723">
        <ele>171.700000</ele>
        <time>2009-07-19T19:22:48Z</time>
      </trkpt>
      <trkpt lat="50.780213" lon="6.384655">
        <ele>172.200000</ele>
        <time>2009-07-19T19:22:58Z</time>
      </trkpt>
      <trkpt lat="50.780072" lon="6.384575">
        <ele>172.700000</ele>
        <time>2009-07-19T19:23:11Z</time>
      </trkpt>
      <trkpt lat="50.779958" lon="6.384525">
        <ele>172.700000</ele>
        <time>2009-07-19T19:23:21Z</time>
      </trkpt>
      <trkpt lat="50.779875" lon="6.384463">
        <ele>172.200000</ele>
        <time>2009-07-19T19:23:29Z</time>
      </trkpt>
      <trkpt lat="50.779733" lon="6.384397">
        <ele>172.700000</ele>
        <time>2009-07-19T19:23:42Z</time>
      </trkpt>
      <trkpt lat="50.779642" lon="6.384345">
        <ele>173.200000</ele>
        <time>2009-07-19T19:23:50Z</time>
      </trkpt>
      <trkpt lat="50.779510" lon="6.384282">
        <ele>173.200000</ele>
        <time>2009-07-19T19:24:02Z</time>
      </trkpt>
      <trkpt lat="50.779402" lon="6.384227">
        <ele>173.700000</ele>
        <time>2009-07-19T19:24:12Z</time>
      </trkpt>
      <trkpt lat="50.779280" lon="6.384157">
        <ele>173.200000</ele>
        <time>2009-07-19T19:24:23Z</time>
      </trkpt>
      <trkpt lat="50.779145" lon="6.384080">
        <ele>173.200000</ele>
        <time>2009-07-19T19:24:35Z</time>
      </trkpt>
      <trkpt lat="50.779037" lon="6.383987">
        <ele>172.200000</ele>
        <time>2009-07-19T19:24:46Z</time>
      </trkpt>
      <trkpt lat="50.778887" lon="6.383928">
        <ele>172.200000</ele>
        <time>2009-07-19T19:25:00Z</time>
      </trkpt>
      <trkpt lat="50.778748" lon="6.383763">
        <ele>172.700000</ele>
        <time>2009-07-19T19:25:14Z</time>
      </trkpt>
      <trkpt lat="50.778593" lon="6.383635">
        <ele>173.200000</ele>
        <time>2009-07-19T19:25:29Z</time>
      </trkpt>
      <trkpt lat="50.778463" lon="6.383532">
        <ele>173.200000</ele>
        <time>2009-07-19T19:25:42Z</time>
      </trkpt>
      <trkpt lat="50.778318" lon="6.383482">
        <ele>172.700000</ele>
        <time>2009-07-19T19:25:55Z</time>
      </trkpt>
      <trkpt lat="50.778193" lon="6.383385">
        <ele>172.700000</ele>
        <time>2009-07-19T19:26:07Z</time>
      </trkpt>
      <trkpt lat="50.778012" lon="6.383297">
        <ele>173.200000</ele>
        <time>2009-07-19T19:26:23Z</time>
      </trkpt>
      <trkpt lat="50.777968" lon="6.383255">
        <ele>173.200000</ele>
        <time>2009-07-19T19:26:28Z</time>
      </trkpt>
      <trkpt lat="50.777820" lon="6.383110">
        <ele>172.700000</ele>
        <time>2009-07-19T19:26:42Z</time>
      </trkpt>
      <trkpt lat="50.777763" lon="6.383058">
        <ele>172.700000</ele>
        <time>2009-07-19T19:26:48Z</time>
      </trkpt>
      <trkpt lat="50.777640" lon="6.383037">
        <ele>174.100000</ele>
        <time>2009-07-19T19:26:59Z</time>
      </trkpt>
      <trkpt lat="50.777615" lon="6.382965">
        <ele>171.300000</ele>
        <time>2009-07-19T19:27:03Z</time>
      </trkpt>
      <trkpt lat="50.777613" lon="6.382960">
        <ele>177.000000</ele>
        <time>2009-07-19T19:27:04Z</time>
      </trkpt>
      <trkpt lat="50.777612" lon="6.382955">
        <ele>177.000000</ele>
        <time>2009-07-19T19:27:04Z</time>
      </trkpt>
      <trkpt lat="50.777608" lon="6.382947">
        <ele>174.100000</ele>
        <time>2009-07-19T19:27:04Z</time>
      </trkpt>
      <trkpt lat="50.777595" lon="6.382925">
        <ele>178.000000</ele>
        <time>2009-07-19T19:27:06Z</time>
      </trkpt>
      <trkpt lat="50.777593" lon="6.382922">
        <ele>171.700000</ele>
        <time>2009-07-19T19:27:06Z</time>
      </trkpt>
      <trkpt lat="50.777593" lon="6.382922">
        <ele>175.100000</ele>
        <time>2009-07-19T19:27:06Z</time>
      </trkpt>
      <trkpt lat="50.777592" lon="6.382920">
        <ele>177.000000</ele>
        <time>2009-07-19T19:27:06Z</time>
      </trkpt>
      <trkpt lat="50.777592" lon="6.382922">
        <ele>175.600000</ele>
        <time>2009-07-19T19:27:07Z</time>
      </trkpt>
      <trkpt lat="50.777593" lon="6.382925">
        <ele>173.200000</ele>
        <time>2009-07-19T19:27:07Z</time>
      </trkpt>
      <trkpt lat="50.777593" lon="6.382928">
        <ele>176.500000</ele>
        <time>2009-07-19T19:27:07Z</time>
      </trkpt>
      <trkpt lat="50.777595" lon="6.382935">
        <ele>171.700000</ele>
        <time>2009-07-19T19:27:07Z</time>
      </trkpt>
      <trkpt lat="50.777595" lon="6.382940">
        <ele>178.500000</ele>
        <time>2009-07-19T19:27:08Z</time>
      </trkpt>
      <trkpt lat="50.777595" lon="6.382942">
        <ele>174.600000</ele>
        <time>2009-07-19T19:27:08Z</time>
      </trkpt>
      <trkpt lat="50.777602" lon="6.382975">
        <ele>170.800000</ele>
        <time>2009-07-19T19:27:09Z</time>
      </trkpt>
      <trkpt lat="50.777602" lon="6.382980">
        <ele>174.600000</ele>
        <time>2009-07-19T19:27:10Z</time>
      </trkpt>
      <trkpt lat="50.777607" lon="6.382995">
        <ele>178.900000</ele>
        <time>2009-07-19T19:27:11Z</time>
      </trkpt>
      <trkpt lat="50.777608" lon="6.382997">
        <ele>173.700000</ele>
        <time>2009-07-19T19:27:11Z</time>
      </trkpt>
      <trkpt lat="50.777610" lon="6.383000">
        <ele>178.900000</ele>
        <time>2009-07-19T19:27:11Z</time>
      </trkpt>
      <trkpt lat="50.777612" lon="6.383002">
        <ele>175.600000</ele>
        <time>2009-07-19T19:27:11Z</time>
      </trkpt>
      <trkpt lat="50.777613" lon="6.383010">
        <ele>172.200000</ele>
        <time>2009-07-19T19:27:12Z</time>
      </trkpt>
      <trkpt lat="50.777612" lon="6.383012">
        <ele>177.000000</ele>
        <time>2009-07-19T19:27:12Z</time>
      </trkpt>
      <trkpt lat="50.777612" lon="6.383013">
        <ele>172.200000</ele>
        <time>2009-07-19T19:27:12Z</time>
      </trkpt>
      <trkpt lat="50.777612" lon="6.383015">
        <ele>176.100000</ele>
        <time>2009-07-19T19:27:12Z</time>
      </trkpt>
      <trkpt lat="50.777605" lon="6.383025">
        <ele>172.700000</ele>
        <time>2009-07-19T19:27:13Z</time>
      </trkpt>
      <trkpt lat="50.777605" lon="6.383025">
        <ele>176.100000</ele>
        <time>2009-07-19T19:27:13Z</time>
      </trkpt>
      <trkpt lat="50.777605" lon="6.383023">
        <ele>179.900000</ele>
        <time>2009-07-19T19:27:13Z</time>
      </trkpt>
      <trkpt lat="50.777605" lon="6.383023">
        <ele>172.700000</ele>
        <time>2009-07-19T19:27:13Z</time>
      </trkpt>
      <trkpt lat="50.777603" lon="6.383023">
        <ele>179.400000</ele>
        <time>2009-07-19T19:27:13Z</time>
      </trkpt>
      <trkpt lat="50.777605" lon="6.383023">
        <ele>176.100000</ele>
        <time>2009-07-19T19:27:13Z</time>
      </trkpt>
      <trkpt lat="50.777628" lon="6.383022">
        <ele>177.500000</ele>
        <time>2009-07-19T19:27:15Z</time>
      </trkpt>
      <trkpt lat="50.777642" lon="6.383003">
        <ele>174.100000</ele>
        <time>2009-07-19T19:27:17Z</time>
      </trkpt>
      <trkpt lat="50.777642" lon="6.382998">
        <ele>174.100000</ele>
        <time>2009-07-19T19:27:17Z</time>
      </trkpt>
      <trkpt lat="50.777642" lon="6.382993">
        <ele>177.500000</ele>
        <time>2009-07-19T19:27:17Z</time>
      </trkpt>
      <trkpt lat="50.777645" lon="6.382992">
        <ele>177.000000</ele>
        <time>2009-07-19T19:27:17Z</time>
      </trkpt>
      <trkpt lat="50.777670" lon="6.382987">
        <ele>180.900000</ele>
        <time>2009-07-19T19:27:19Z</time>
      </trkpt>
      <trkpt lat="50.777672" lon="6.382990">
        <ele>175.100000</ele>
        <time>2009-07-19T19:27:20Z</time>
      </trkpt>
      <trkpt lat="50.777678" lon="6.382995">
        <ele>179.900000</ele>
        <time>2009-07-19T19:27:20Z</time>
      </trkpt>
      <trkpt lat="50.777680" lon="6.382997">
        <ele>176.500000</ele>
        <time>2009-07-19T19:27:21Z</time>
      </trkpt>
      <trkpt lat="50.777690" lon="6.383005">
        <ele>181.300000</ele>
        <time>2009-07-19T19:27:21Z</time>
      </trkpt>
      <trkpt lat="50.777690" lon="6.383005">
        <ele>178.000000</ele>
        <time>2009-07-19T19:27:22Z</time>
      </trkpt>
      <trkpt lat="50.777693" lon="6.383017">
        <ele>177.000000</ele>
        <time>2009-07-19T19:27:22Z</time>
      </trkpt>
      <trkpt lat="50.777692" lon="6.383018">
        <ele>178.000000</ele>
        <time>2009-07-19T19:27:22Z</time>
      </trkpt>
      <trkpt lat="50.777688" lon="6.383022">
        <ele>174.600000</ele>
        <time>2009-07-19T19:27:23Z</time>
      </trkpt>
      <trkpt lat="50.777685" lon="6.383020">
        <ele>178.000000</ele>
        <time>2009-07-19T19:27:23Z</time>
      </trkpt>
      <trkpt lat="50.777683" lon="6.383018">
        <ele>181.300000</ele>
        <time>2009-07-19T19:27:23Z</time>
      </trkpt>
      <trkpt lat="50.777682" lon="6.383018">
        <ele>181.300000</ele>
        <time>2009-07-19T19:27:23Z</time>
      </trkpt>
      <trkpt lat="50.777680" lon="6.383017">
        <ele>179.900000</ele>
        <time>2009-07-19T19:27:23Z</time>
      </trkpt>
      <trkpt lat="50.777677" lon="6.383015">
        <ele>175.600000</ele>
        <time>2009-07-19T19:27:24Z</time>
      </trkpt>
      <trkpt lat="50.777675" lon="6.383017">
        <ele>180.900000</ele>
        <time>2009-07-19T19:27:24Z</time>
      </trkpt>
      <trkpt lat="50.777673" lon="6.383017">
        <ele>175.600000</ele>
        <time>2009-07-19T19:27:24Z</time>
      </trkpt>
      <trkpt lat="50.777673" lon="6.383017">
        <ele>178.900000</ele>
        <time>2009-07-19T19:27:24Z</time>
      </trkpt>
      <trkpt lat="50.777672" lon="6.383018">
        <ele>176.100000</ele>
        <time>2009-07-19T19:27:24Z</time>
      </trkpt>
      <trkpt lat="50.777672" lon="6.383020">
        <ele>179.900000</ele>
        <time>2009-07-19T19:27:24Z</time>
      </trkpt>
      <trkpt lat="50.777672" lon="6.383022">
        <ele>178.900000</ele>
        <time>2009-07-19T19:27:24Z</time>
      </trkpt>
      <trkpt lat="50.777672" lon="6.383022">
        <ele>175.600000</ele>
        <time>2009-07-19T19:27:24Z</time>
      </trkpt>
      <trkpt lat="50.777673" lon="6.383023">
        <ele>175.600000</ele>
        <time>2009-07-19T19:27:24Z</time>
      </trkpt>
      <trkpt lat="50.777673" lon="6.383022">
        <ele>181.300000</ele>
        <time>2009-07-19T19:27:24Z</time>
      </trkpt>
      <trkpt lat="50.777673" lon="6.383022">
        <ele>178.900000</ele>
        <time>2009-07-19T19:27:24Z</time>
      </trkpt>
      <trkpt lat="50.777653" lon="6.382983">
        <ele>175.100000</ele>
        <time>2009-07-19T19:27:27Z</time>
      </trkpt>
      <trkpt lat="50.777650" lon="6.382977">
        <ele>178.500000</ele>
        <time>2009-07-19T19:27:28Z</time>
      </trkpt>
      <trkpt lat="50.777647" lon="6.382972">
        <ele>181.300000</ele>
        <time>2009-07-19T19:27:28Z</time>
      </trkpt>
      <trkpt lat="50.777638" lon="6.382957">
        <ele>176.100000</ele>
        <time>2009-07-19T19:27:29Z</time>
      </trkpt>
      <trkpt lat="50.777637" lon="6.382953">
        <ele>181.300000</ele>
        <time>2009-07-19T19:27:29Z</time>
      </trkpt>
      <trkpt lat="50.777623" lon="6.382927">
        <ele>176.100000</ele>
        <time>2009-07-19T19:27:31Z</time>
      </trkpt>
      <trkpt lat="50.777622" lon="6.382925">
        <ele>181.800000</ele>
        <time>2009-07-19T19:27:31Z</time>
      </trkpt>
      <trkpt lat="50.777620" lon="6.382923">
        <ele>178.000000</ele>
        <time>2009-07-19T19:27:31Z</time>
      </trkpt>
      <trkpt lat="50.777615" lon="6.382917">
        <ele>182.800000</ele>
        <time>2009-07-19T19:27:32Z</time>
      </trkpt>
      <trkpt lat="50.777613" lon="6.382915">
        <ele>179.900000</ele>
        <time>2009-07-19T19:27:32Z</time>
      </trkpt>
      <trkpt lat="50.777560" lon="6.382838">
        <ele>179.400000</ele>
        <time>2009-07-19T19:27:38Z</time>
      </trkpt>
      <trkpt lat="50.777553" lon="6.382830">
        <ele>179.400000</ele>
        <time>2009-07-19T19:27:39Z</time>
      </trkpt>
      <trkpt lat="50.777540" lon="6.382810">
        <ele>179.400000</ele>
        <time>2009-07-19T19:27:41Z</time>
      </trkpt>
      <trkpt lat="50.777507" lon="6.382695">
        <ele>179.900000</ele>
        <time>2009-07-19T19:27:48Z</time>
      </trkpt>
      <trkpt lat="50.777457" lon="6.382527">
        <ele>180.900000</ele>
        <time>2009-07-19T19:27:58Z</time>
      </trkpt>
      <trkpt lat="50.777373" lon="6.382387">
        <ele>180.400000</ele>
        <time>2009-07-19T19:28:08Z</time>
      </trkpt>
      <trkpt lat="50.777278" lon="6.382207">
        <ele>180.900000</ele>
        <time>2009-07-19T19:28:21Z</time>
      </trkpt>
      <trkpt lat="50.777202" lon="6.382005">
        <ele>181.300000</ele>
        <time>2009-07-19T19:28:34Z</time>
      </trkpt>
      <trkpt lat="50.777130" lon="6.381805">
        <ele>182.800000</ele>
        <time>2009-07-19T19:28:46Z</time>
      </trkpt>
      <trkpt lat="50.777118" lon="6.381793">
        <ele>181.800000</ele>
        <time>2009-07-19T19:28:47Z</time>
      </trkpt>
      <trkpt lat="50.777067" lon="6.381652">
        <ele>184.200000</ele>
        <time>2009-07-19T19:28:56Z</time>
      </trkpt>
      <trkpt lat="50.777052" lon="6.381607">
        <ele>183.700000</ele>
        <time>2009-07-19T19:28:59Z</time>
      </trkpt>
      <trkpt lat="50.776920" lon="6.381365">
        <ele>184.700000</ele>
        <time>2009-07-19T19:29:16Z</time>
      </trkpt>
      <trkpt lat="50.776863" lon="6.381212">
        <ele>185.700000</ele>
        <time>2009-07-19T19:29:26Z</time>
      </trkpt>
      <trkpt lat="50.776762" lon="6.381075">
        <ele>184.200000</ele>
        <time>2009-07-19T19:29:38Z</time>
      </trkpt>
      <trkpt lat="50.776670" lon="6.380925">
        <ele>185.200000</ele>
        <time>2009-07-19T19:29:49Z</time>
      </trkpt>
      <trkpt lat="50.776555" lon="6.380752">
        <ele>186.600000</ele>
        <time>2009-07-19T19:30:03Z</time>
      </trkpt>
      <trkpt lat="50.776472" lon="6.380555">
        <ele>187.100000</ele>
        <time>2009-07-19T19:30:16Z</time>
      </trkpt>
      <trkpt lat="50.776397" lon="6.380362">
        <ele>188.100000</ele>
        <time>2009-07-19T19:30:28Z</time>
      </trkpt>
      <trkpt lat="50.776322" lon="6.380148">
        <ele>188.600000</ele>
        <time>2009-07-19T19:30:41Z</time>
      </trkpt>
      <trkpt lat="50.776258" lon="6.379995">
        <ele>188.100000</ele>
        <time>2009-07-19T19:30:51Z</time>
      </trkpt>
      <trkpt lat="50.776178" lon="6.379808">
        <ele>189.500000</ele>
        <time>2009-07-19T19:31:04Z</time>
      </trkpt>
      <trkpt lat="50.776113" lon="6.379698">
        <ele>189.500000</ele>
        <time>2009-07-19T19:31:12Z</time>
      </trkpt>
      <trkpt lat="50.776005" lon="6.379547">
        <ele>190.500000</ele>
        <time>2009-07-19T19:31:24Z</time>
      </trkpt>
      <trkpt lat="50.775945" lon="6.379420">
        <ele>191.400000</ele>
        <time>2009-07-19T19:31:33Z</time>
      </trkpt>
      <trkpt lat="50.775868" lon="6.379282">
        <ele>191.400000</ele>
        <time>2009-07-19T19:31:43Z</time>
      </trkpt>
      <trkpt lat="50.775790" lon="6.379055">
        <ele>192.400000</ele>
        <time>2009-07-19T19:31:57Z</time>
      </trkpt>
      <trkpt lat="50.775625" lon="6.378683">
        <ele>195.300000</ele>
        <time>2009-07-19T19:32:22Z</time>
      </trkpt>
      <trkpt lat="50.775558" lon="6.378540">
        <ele>195.300000</ele>
        <time>2009-07-19T19:32:31Z</time>
      </trkpt>
      <trkpt lat="50.775490" lon="6.378392">
        <ele>197.200000</ele>
        <time>2009-07-19T19:32:41Z</time>
      </trkpt>
      <trkpt lat="50.775417" lon="6.378217">
        <ele>197.700000</ele>
        <time>2009-07-19T19:32:53Z</time>
      </trkpt>
      <trkpt lat="50.775358" lon="6.378060">
        <ele>198.700000</ele>
        <time>2009-07-19T19:33:03Z</time>
      </trkpt>
      <trkpt lat="50.775255" lon="6.377855">
        <ele>198.700000</ele>
        <time>2009-07-19T19:33:17Z</time>
      </trkpt>
      <trkpt lat="50.775222" lon="6.377657">
        <ele>199.100000</ele>
        <time>2009-07-19T19:33:28Z</time>
      </trkpt>
      <trkpt lat="50.775208" lon="6.377517">
        <ele>199.100000</ele>
        <time>2009-07-19T19:33:36Z</time>
      </trkpt>
      <trkpt lat="50.775153" lon="6.377228">
        <ele>199.600000</ele>
        <time>2009-07-19T19:33:52Z</time>
      </trkpt>
      <trkpt lat="50.775125" lon="6.377023">
        <ele>200.600000</ele>
        <time>2009-07-19T19:34:04Z</time>
      </trkpt>
      <trkpt lat="50.775085" lon="6.376908">
        <ele>201.500000</ele>
        <time>2009-07-19T19:34:11Z</time>
      </trkpt>
      <trkpt lat="50.775063" lon="6.376872">
        <ele>201.100000</ele>
        <time>2009-07-19T19:34:13Z</time>
      </trkpt>
      <trkpt lat="50.775040" lon="6.376837">
        <ele>201.500000</ele>
        <time>2009-07-19T19:34:16Z</time>
      </trkpt>
      <trkpt lat="50.774955" lon="6.376677">
        <ele>203.000000</ele>
        <time>2009-07-19T19:34:28Z</time>
      </trkpt>
      <trkpt lat="50.774903" lon="6.376517">
        <ele>202.500000</ele>
        <time>2009-07-19T19:34:37Z</time>
      </trkpt>
      <trkpt lat="50.774842" lon="6.376295">
        <ele>203.000000</ele>
        <time>2009-07-19T19:34:50Z</time>
      </trkpt>
      <trkpt lat="50.774772" lon="6.376170">
        <ele>204.400000</ele>
        <time>2009-07-19T19:35:00Z</time>
      </trkpt>
      <trkpt lat="50.774707" lon="6.375950">
        <ele>204.400000</ele>
        <time>2009-07-19T19:35:13Z</time>
      </trkpt>
      <trkpt lat="50.774700" lon="6.375923">
        <ele>205.400000</ele>
        <time>2009-07-19T19:35:14Z</time>
      </trkpt>
      <trkpt lat="50.774673" lon="6.375805">
        <ele>205.900000</ele>
        <time>2009-07-19T19:35:21Z</time>
      </trkpt>
      <trkpt lat="50.774657" lon="6.375577">
        <ele>207.300000</ele>
        <time>2009-07-19T19:35:34Z</time>
      </trkpt>
      <trkpt lat="50.774627" lon="6.375440">
        <ele>207.800000</ele>
        <time>2009-07-19T19:35:42Z</time>
      </trkpt>
      <trkpt lat="50.774607" lon="6.375415">
        <ele>207.300000</ele>
        <time>2009-07-19T19:35:44Z</time>
      </trkpt>
      <trkpt lat="50.774570" lon="6.375295">
        <ele>208.300000</ele>
        <time>2009-07-19T19:35:51Z</time>
      </trkpt>
      <trkpt lat="50.774555" lon="6.375108">
        <ele>207.800000</ele>
        <time>2009-07-19T19:36:01Z</time>
      </trkpt>
      <trkpt lat="50.774527" lon="6.374935">
        <ele>210.200000</ele>
        <time>2009-07-19T19:36:11Z</time>
      </trkpt>
      <trkpt lat="50.774515" lon="6.374877">
        <ele>210.200000</ele>
        <time>2009-07-19T19:36:14Z</time>
      </trkpt>
      <trkpt lat="50.774518" lon="6.374637">
        <ele>213.100000</ele>
        <time>2009-07-19T19:36:28Z</time>
      </trkpt>
      <trkpt lat="50.774520" lon="6.374417">
        <ele>212.600000</ele>
        <time>2009-07-19T19:36:40Z</time>
      </trkpt>
      <trkpt lat="50.774548" lon="6.374138">
        <ele>213.100000</ele>
        <time>2009-07-19T19:36:55Z</time>
      </trkpt>
      <trkpt lat="50.774577" lon="6.373928">
        <ele>214.500000</ele>
        <time>2009-07-19T19:37:07Z</time>
      </trkpt>
      <trkpt lat="50.774572" lon="6.373718">
        <ele>216.900000</ele>
        <time>2009-07-19T19:37:18Z</time>
      </trkpt>
      <trkpt lat="50.774527" lon="6.373487">
        <ele>217.900000</ele>
        <time>2009-07-19T19:37:31Z</time>
      </trkpt>
      <trkpt lat="50.774530" lon="6.373323">
        <ele>217.400000</ele>
        <time>2009-07-19T19:37:40Z</time>
      </trkpt>
      <trkpt lat="50.774507" lon="6.373163">
        <ele>217.900000</ele>
        <time>2009-07-19T19:37:49Z</time>
      </trkpt>
      <trkpt lat="50.774480" lon="6.372923">
        <ele>218.800000</ele>
        <time>2009-07-19T19:38:02Z</time>
      </trkpt>
      <trkpt lat="50.774477" lon="6.372737">
        <ele>219.800000</ele>
        <time>2009-07-19T19:38:13Z</time>
      </trkpt>
      <trkpt lat="50.774462" lon="6.372577">
        <ele>220.300000</ele>
        <time>2009-07-19T19:38:21Z</time>
      </trkpt>
      <trkpt lat="50.774448" lon="6.372325">
        <ele>221.200000</ele>
        <time>2009-07-19T19:38:35Z</time>
      </trkpt>
      <trkpt lat="50.774458" lon="6.372077">
        <ele>223.200000</ele>
        <time>2009-07-19T19:38:49Z</time>
      </trkpt>
      <trkpt lat="50.774477" lon="6.372015">
        <ele>223.600000</ele>
        <time>2009-07-19T19:38:52Z</time>
      </trkpt>
      <trkpt lat="50.774483" lon="6.371893">
        <ele>224.100000</ele>
        <time>2009-07-19T19:38:59Z</time>
      </trkpt>
      <trkpt lat="50.774493" lon="6.371670">
        <ele>224.600000</ele>
        <time>2009-07-19T19:39:11Z</time>
      </trkpt>
      <trkpt lat="50.774497" lon="6.371520">
        <ele>224.100000</ele>
        <time>2009-07-19T19:39:19Z</time>
      </trkpt>
      <trkpt lat="50.774478" lon="6.371320">
        <ele>224.100000</ele>
        <time>2009-07-19T19:39:30Z</time>
      </trkpt>
      <trkpt lat="50.774492" lon="6.371110">
        <ele>223.600000</ele>
        <time>2009-07-19T19:39:42Z</time>
      </trkpt>
      <trkpt lat="50.774512" lon="6.370930">
        <ele>224.600000</ele>
        <time>2009-07-19T19:39:52Z</time>
      </trkpt>
      <trkpt lat="50.774507" lon="6.370798">
        <ele>224.100000</ele>
        <time>2009-07-19T19:39:59Z</time>
      </trkpt>
      <trkpt lat="50.774537" lon="6.370637">
        <ele>223.600000</ele>
        <time>2009-07-19T19:40:08Z</time>
      </trkpt>
      <trkpt lat="50.774538" lon="6.370415">
        <ele>223.600000</ele>
        <time>2009-07-19T19:40:20Z</time>
      </trkpt>
      <trkpt lat="50.774510" lon="6.370210">
        <ele>223.600000</ele>
        <time>2009-07-19T19:40:32Z</time>
      </trkpt>
      <trkpt lat="50.774478" lon="6.370078">
        <ele>222.700000</ele>
        <time>2009-07-19T19:40:39Z</time>
      </trkpt>
      <trkpt lat="50.774428" lon="6.369977">
        <ele>222.700000</ele>
        <time>2009-07-19T19:40:46Z</time>
      </trkpt>
      <trkpt lat="50.774422" lon="6.369715">
        <ele>223.600000</ele>
        <time>2009-07-19T19:41:01Z</time>
      </trkpt>
      <trkpt lat="50.774442" lon="6.369660">
        <ele>222.200000</ele>
        <time>2009-07-19T19:41:04Z</time>
      </trkpt>
      <trkpt lat="50.774418" lon="6.369617">
        <ele>224.600000</ele>
        <time>2009-07-19T19:41:07Z</time>
      </trkpt>
      <trkpt lat="50.774307" lon="6.369478">
        <ele>223.600000</ele>
        <time>2009-07-19T19:41:19Z</time>
      </trkpt>
      <trkpt lat="50.774197" lon="6.369427">
        <ele>223.200000</ele>
        <time>2009-07-19T19:41:29Z</time>
      </trkpt>
      <trkpt lat="50.774107" lon="6.369370">
        <ele>223.200000</ele>
        <time>2009-07-19T19:41:38Z</time>
      </trkpt>
      <trkpt lat="50.774037" lon="6.369280">
        <ele>222.700000</ele>
        <time>2009-07-19T19:41:45Z</time>
      </trkpt>
      <trkpt lat="50.774013" lon="6.369168">
        <ele>222.700000</ele>
        <time>2009-07-19T19:41:52Z</time>
      </trkpt>
      <trkpt lat="50.773963" lon="6.369037">
        <ele>222.700000</ele>
        <time>2009-07-19T19:42:00Z</time>
      </trkpt>
      <trkpt lat="50.773903" lon="6.368768">
        <ele>224.100000</ele>
        <time>2009-07-19T19:42:16Z</time>
      </trkpt>
      <trkpt lat="50.773818" lon="6.368428">
        <ele>224.100000</ele>
        <time>2009-07-19T19:42:36Z</time>
      </trkpt>
      <trkpt lat="50.773762" lon="6.368203">
        <ele>225.100000</ele>
        <time>2009-07-19T19:42:49Z</time>
      </trkpt>
      <trkpt lat="50.773738" lon="6.368062">
        <ele>225.600000</ele>
        <time>2009-07-19T19:42:57Z</time>
      </trkpt>
      <trkpt lat="50.773673" lon="6.367827">
        <ele>226.000000</ele>
        <time>2009-07-19T19:43:11Z</time>
      </trkpt>
      <trkpt lat="50.773638" lon="6.367660">
        <ele>227.000000</ele>
        <time>2009-07-19T19:43:20Z</time>
      </trkpt>
      <trkpt lat="50.773563" lon="6.367428">
        <ele>228.900000</ele>
        <time>2009-07-19T19:43:34Z</time>
      </trkpt>
      <trkpt lat="50.773502" lon="6.367285">
        <ele>228.500000</ele>
        <time>2009-07-19T19:43:44Z</time>
      </trkpt>
      <trkpt lat="50.773472" lon="6.367150">
        <ele>229.400000</ele>
        <time>2009-07-19T19:43:52Z</time>
      </trkpt>
      <trkpt lat="50.773432" lon="6.366975">
        <ele>229.400000</ele>
        <time>2009-07-19T19:44:02Z</time>
      </trkpt>
      <trkpt lat="50.773418" lon="6.366935">
        <ele>230.400000</ele>
        <time>2009-07-19T19:44:04Z</time>
      </trkpt>
      <trkpt lat="50.773398" lon="6.366857">
        <ele>231.300000</ele>
        <time>2009-07-19T19:44:09Z</time>
      </trkpt>
      <trkpt lat="50.773378" lon="6.366762">
        <ele>229.900000</ele>
        <time>2009-07-19T19:44:14Z</time>
      </trkpt>
      <trkpt lat="50.773318" lon="6.366588">
        <ele>230.900000</ele>
        <time>2009-07-19T19:44:25Z</time>
      </trkpt>
      <trkpt lat="50.773275" lon="6.366418">
        <ele>231.800000</ele>
        <time>2009-07-19T19:44:35Z</time>
      </trkpt>
      <trkpt lat="50.773225" lon="6.366250">
        <ele>231.800000</ele>
        <time>2009-07-19T19:44:45Z</time>
      </trkpt>
      <trkpt lat="50.773183" lon="6.366165">
        <ele>233.700000</ele>
        <time>2009-07-19T19:44:51Z</time>
      </trkpt>
      <trkpt lat="50.773177" lon="6.366135">
        <ele>234.700000</ele>
        <time>2009-07-19T19:44:53Z</time>
      </trkpt>
      <trkpt lat="50.773178" lon="6.366137">
        <ele>233.300000</ele>
        <time>2009-07-19T19:44:53Z</time>
      </trkpt>
      <trkpt lat="50.773150" lon="6.366040">
        <ele>232.800000</ele>
        <time>2009-07-19T19:44:59Z</time>
      </trkpt>
      <trkpt lat="50.773102" lon="6.365900">
        <ele>233.700000</ele>
        <time>2009-07-19T19:45:08Z</time>
      </trkpt>
      <trkpt lat="50.773058" lon="6.365742">
        <ele>234.200000</ele>
        <time>2009-07-19T19:45:17Z</time>
      </trkpt>
      <trkpt lat="50.773023" lon="6.365613">
        <ele>235.200000</ele>
        <time>2009-07-19T19:45:25Z</time>
      </trkpt>
      <trkpt lat="50.772978" lon="6.365483">
        <ele>236.100000</ele>
        <time>2009-07-19T19:45:33Z</time>
      </trkpt>
      <trkpt lat="50.772940" lon="6.365302">
        <ele>236.600000</ele>
        <time>2009-07-19T19:45:43Z</time>
      </trkpt>
      <trkpt lat="50.772900" lon="6.365150">
        <ele>237.100000</ele>
        <time>2009-07-19T19:45:52Z</time>
      </trkpt>
      <trkpt lat="50.772892" lon="6.365085">
        <ele>237.100000</ele>
        <time>2009-07-19T19:45:56Z</time>
      </trkpt>
      <trkpt lat="50.772860" lon="6.364983">
        <ele>238.100000</ele>
        <time>2009-07-19T19:46:02Z</time>
      </trkpt>
      <trkpt lat="50.772833" lon="6.364973">
        <ele>237.100000</ele>
        <time>2009-07-19T19:46:04Z</time>
      </trkpt>
      <trkpt lat="50.772762" lon="6.365038">
        <ele>238.100000</ele>
        <time>2009-07-19T19:46:11Z</time>
      </trkpt>
      <trkpt lat="50.772667" lon="6.365113">
        <ele>237.600000</ele>
        <time>2009-07-19T19:46:20Z</time>
      </trkpt>
      <trkpt lat="50.772577" lon="6.365177">
        <ele>237.100000</ele>
        <time>2009-07-19T19:46:29Z</time>
      </trkpt>
      <trkpt lat="50.772443" lon="6.365200">
        <ele>237.100000</ele>
        <time>2009-07-19T19:46:40Z</time>
      </trkpt>
      <trkpt lat="50.772370" lon="6.365235">
        <ele>236.100000</ele>
        <time>2009-07-19T19:46:47Z</time>
      </trkpt>
      <trkpt lat="50.772255" lon="6.365348">
        <ele>234.700000</ele>
        <time>2009-07-19T19:46:59Z</time>
      </trkpt>
      <trkpt lat="50.772202" lon="6.365487">
        <ele>233.700000</ele>
        <time>2009-07-19T19:47:08Z</time>
      </trkpt>
      <trkpt lat="50.772135" lon="6.365640">
        <ele>233.300000</ele>
        <time>2009-07-19T19:47:18Z</time>
      </trkpt>
      <trkpt lat="50.772022" lon="6.365745">
        <ele>233.700000</ele>
        <time>2009-07-19T19:47:29Z</time>
      </trkpt>
      <trkpt lat="50.771893" lon="6.365792">
        <ele>234.200000</ele>
        <time>2009-07-19T19:47:40Z</time>
      </trkpt>
      <trkpt lat="50.771768" lon="6.365860">
        <ele>234.700000</ele>
        <time>2009-07-19T19:47:52Z</time>
      </trkpt>
      <trkpt lat="50.771722" lon="6.366008">
        <ele>234.700000</ele>
        <time>2009-07-19T19:48:01Z</time>
      </trkpt>
      <trkpt lat="50.771663" lon="6.366058">
        <ele>234.700000</ele>
        <time>2009-07-19T19:48:06Z</time>
      </trkpt>
      <trkpt lat="50.771580" lon="6.366158">
        <ele>236.100000</ele>
        <time>2009-07-19T19:48:16Z</time>
      </trkpt>
      <trkpt lat="50.771490" lon="6.366170">
        <ele>236.600000</ele>
        <time>2009-07-19T19:48:23Z</time>
      </trkpt>
      <trkpt lat="50.771410" lon="6.366223">
        <ele>238.100000</ele>
        <time>2009-07-19T19:48:31Z</time>
      </trkpt>
      <trkpt lat="50.771308" lon="6.366260">
        <ele>240.000000</ele>
        <time>2009-07-19T19:48:40Z</time>
      </trkpt>
      <trkpt lat="50.771250" lon="6.366362">
        <ele>242.400000</ele>
        <time>2009-07-19T19:48:47Z</time>
      </trkpt>
      <trkpt lat="50.771203" lon="6.366373">
        <ele>241.900000</ele>
        <time>2009-07-19T19:48:51Z</time>
      </trkpt>
      <trkpt lat="50.771087" lon="6.366413">
        <ele>243.400000</ele>
        <time>2009-07-19T19:49:02Z</time>
      </trkpt>
      <trkpt lat="50.770993" lon="6.366433">
        <ele>245.800000</ele>
        <time>2009-07-19T19:49:10Z</time>
      </trkpt>
      <trkpt lat="50.770950" lon="6.366380">
        <ele>245.800000</ele>
        <time>2009-07-19T19:49:14Z</time>
      </trkpt>
      <trkpt lat="50.770892" lon="6.366298">
        <ele>247.700000</ele>
        <time>2009-07-19T19:49:21Z</time>
      </trkpt>
      <trkpt lat="50.770887" lon="6.366282">
        <ele>246.700000</ele>
        <time>2009-07-19T19:49:22Z</time>
      </trkpt>
      <trkpt lat="50.770812" lon="6.366007">
        <ele>247.200000</ele>
        <time>2009-07-19T19:49:38Z</time>
      </trkpt>
      <trkpt lat="50.770773" lon="6.365862">
        <ele>247.200000</ele>
        <time>2009-07-19T19:49:47Z</time>
      </trkpt>
      <trkpt lat="50.770762" lon="6.365708">
        <ele>248.200000</ele>
        <time>2009-07-19T19:49:55Z</time>
      </trkpt>
      <trkpt lat="50.770692" lon="6.365487">
        <ele>248.600000</ele>
        <time>2009-07-19T19:50:09Z</time>
      </trkpt>
      <trkpt lat="50.770630" lon="6.365270">
        <ele>249.600000</ele>
        <time>2009-07-19T19:50:22Z</time>
      </trkpt>
      <trkpt lat="50.770580" lon="6.365060">
        <ele>250.100000</ele>
        <time>2009-07-19T19:50:34Z</time>
      </trkpt>
      <trkpt lat="50.770548" lon="6.364922">
        <ele>249.600000</ele>
        <time>2009-07-19T19:50:42Z</time>
      </trkpt>
      <trkpt lat="50.770543" lon="6.364878">
        <ele>250.100000</ele>
        <time>2009-07-19T19:50:44Z</time>
      </trkpt>
      <trkpt lat="50.770485" lon="6.364668">
        <ele>250.100000</ele>
        <time>2009-07-19T19:50:57Z</time>
      </trkpt>
      <trkpt lat="50.770450" lon="6.364543">
        <ele>252.000000</ele>
        <time>2009-07-19T19:51:04Z</time>
      </trkpt>
      <trkpt lat="50.770448" lon="6.364430">
        <ele>253.000000</ele>
        <time>2009-07-19T19:51:11Z</time>
      </trkpt>
      <trkpt lat="50.770442" lon="6.364362">
        <ele>253.000000</ele>
        <time>2009-07-19T19:51:14Z</time>
      </trkpt>
      <trkpt lat="50.770360" lon="6.364177">
        <ele>253.400000</ele>
        <time>2009-07-19T19:51:26Z</time>
      </trkpt>
      <trkpt lat="50.770283" lon="6.363925">
        <ele>254.400000</ele>
        <time>2009-07-19T19:51:42Z</time>
      </trkpt>
      <trkpt lat="50.770210" lon="6.363712">
        <ele>254.900000</ele>
        <time>2009-07-19T19:51:55Z</time>
      </trkpt>
      <trkpt lat="50.770160" lon="6.363567">
        <ele>255.800000</ele>
        <time>2009-07-19T19:52:04Z</time>
      </trkpt>
      <trkpt lat="50.770080" lon="6.363342">
        <ele>256.300000</ele>
        <time>2009-07-19T19:52:18Z</time>
      </trkpt>
      <trkpt lat="50.769998" lon="6.363140">
        <ele>257.300000</ele>
        <time>2009-07-19T19:52:31Z</time>
      </trkpt>
      <trkpt lat="50.769918" lon="6.362893">
        <ele>258.700000</ele>
        <time>2009-07-19T19:52:46Z</time>
      </trkpt>
      <trkpt lat="50.769877" lon="6.362735">
        <ele>259.200000</ele>
        <time>2009-07-19T19:52:55Z</time>
      </trkpt>
      <trkpt lat="50.769823" lon="6.362628">
        <ele>260.700000</ele>
        <time>2009-07-19T19:53:03Z</time>
      </trkpt>
      <trkpt lat="50.769733" lon="6.362463">
        <ele>260.700000</ele>
        <time>2009-07-19T19:53:15Z</time>
      </trkpt>
      <trkpt lat="50.769672" lon="6.362318">
        <ele>261.600000</ele>
        <time>2009-07-19T19:53:24Z</time>
      </trkpt>
      <trkpt lat="50.769582" lon="6.362177">
        <ele>263.100000</ele>
        <time>2009-07-19T19:53:35Z</time>
      </trkpt>
      <trkpt lat="50.769447" lon="6.362037">
        <ele>263.100000</ele>
        <time>2009-07-19T19:53:49Z</time>
      </trkpt>
      <trkpt lat="50.769357" lon="6.361997">
        <ele>264.000000</ele>
        <time>2009-07-19T19:53:57Z</time>
      </trkpt>
      <trkpt lat="50.769262" lon="6.361927">
        <ele>265.000000</ele>
        <time>2009-07-19T19:54:06Z</time>
      </trkpt>
      <trkpt lat="50.769172" lon="6.361788">
        <ele>266.400000</ele>
        <time>2009-07-19T19:54:17Z</time>
      </trkpt>
      <trkpt lat="50.769150" lon="6.361702">
        <ele>266.900000</ele>
        <time>2009-07-19T19:54:22Z</time>
      </trkpt>
      <trkpt lat="50.769135" lon="6.361417">
        <ele>267.900000</ele>
        <time>2009-07-19T19:54:38Z</time>
      </trkpt>
      <trkpt lat="50.769127" lon="6.361180">
        <ele>267.900000</ele>
        <time>2009-07-19T19:54:51Z</time>
      </trkpt>
      <trkpt lat="50.769140" lon="6.361013">
        <ele>268.800000</ele>
        <time>2009-07-19T19:55:00Z</time>
      </trkpt>
      <trkpt lat="50.769125" lon="6.360947">
        <ele>269.800000</ele>
        <time>2009-07-19T19:55:04Z</time>
      </trkpt>
      <trkpt lat="50.769065" lon="6.360727">
        <ele>270.300000</ele>
        <time>2009-07-19T19:55:17Z</time>
      </trkpt>
      <trkpt lat="50.769015" lon="6.360458">
        <ele>271.700000</ele>
        <time>2009-07-19T19:55:32Z</time>
      </trkpt>
      <trkpt lat="50.768963" lon="6.360272">
        <ele>272.200000</ele>
        <time>2009-07-19T19:55:43Z</time>
      </trkpt>
      <trkpt lat="50.768882" lon="6.360102">
        <ele>272.700000</ele>
        <time>2009-07-19T19:55:55Z</time>
      </trkpt>
      <trkpt lat="50.768812" lon="6.359972">
        <ele>273.600000</ele>
        <time>2009-07-19T19:56:04Z</time>
      </trkpt>
      <trkpt lat="50.768780" lon="6.359935">
        <ele>273.600000</ele>
        <time>2009-07-19T19:56:07Z</time>
      </trkpt>
      <trkpt lat="50.768652" lon="6.359742">
        <ele>275.100000</ele>
        <time>2009-07-19T19:56:22Z</time>
      </trkpt>
      <trkpt lat="50.768567" lon="6.359625">
        <ele>276.000000</ele>
        <time>2009-07-19T19:56:32Z</time>
      </trkpt>
      <trkpt lat="50.768455" lon="6.359520">
        <ele>277.000000</ele>
        <time>2009-07-19T19:56:43Z</time>
      </trkpt>
      <trkpt lat="50.768367" lon="6.359400">
        <ele>278.000000</ele>
        <time>2009-07-19T19:56:53Z</time>
      </trkpt>
      <trkpt lat="50.768232" lon="6.359200">
        <ele>278.900000</ele>
        <time>2009-07-19T19:57:09Z</time>
      </trkpt>
      <trkpt lat="50.768140" lon="6.359097">
        <ele>280.400000</ele>
        <time>2009-07-19T19:57:19Z</time>
      </trkpt>
      <trkpt lat="50.768017" lon="6.359068">
        <ele>281.300000</ele>
        <time>2009-07-19T19:57:30Z</time>
      </trkpt>
      <trkpt lat="50.767850" lon="6.359012">
        <ele>281.800000</ele>
        <time>2009-07-19T19:57:45Z</time>
      </trkpt>
      <trkpt lat="50.767752" lon="6.358957">
        <ele>282.800000</ele>
        <time>2009-07-19T19:57:53Z</time>
      </trkpt>
      <trkpt lat="50.767615" lon="6.358937">
        <ele>283.700000</ele>
        <time>2009-07-19T19:58:05Z</time>
      </trkpt>
      <trkpt lat="50.767528" lon="6.358902">
        <ele>284.700000</ele>
        <time>2009-07-19T19:58:13Z</time>
      </trkpt>
      <trkpt lat="50.767420" lon="6.358828">
        <ele>285.600000</ele>
        <time>2009-07-19T19:58:23Z</time>
      </trkpt>
      <trkpt lat="50.767320" lon="6.358722">
        <ele>286.600000</ele>
        <time>2009-07-19T19:58:33Z</time>
      </trkpt>
      <trkpt lat="50.767225" lon="6.358592">
        <ele>287.100000</ele>
        <time>2009-07-19T19:58:44Z</time>
      </trkpt>
      <trkpt lat="50.767135" lon="6.358402">
        <ele>287.600000</ele>
        <time>2009-07-19T19:58:57Z</time>
      </trkpt>
      <trkpt lat="50.767050" lon="6.358270">
        <ele>287.600000</ele>
        <time>2009-07-19T19:59:08Z</time>
      </trkpt>
      <trkpt lat="50.766962" lon="6.358223">
        <ele>288.100000</ele>
        <time>2009-07-19T19:59:16Z</time>
      </trkpt>
      <trkpt lat="50.766838" lon="6.358228">
        <ele>288.100000</ele>
        <time>2009-07-19T19:59:26Z</time>
      </trkpt>
      <trkpt lat="50.766677" lon="6.358227">
        <ele>286.100000</ele>
        <time>2009-07-19T19:59:40Z</time>
      </trkpt>
      <trkpt lat="50.766610" lon="6.358295">
        <ele>286.600000</ele>
        <time>2009-07-19T19:59:47Z</time>
      </trkpt>
      <trkpt lat="50.766453" lon="6.358370">
        <ele>287.100000</ele>
        <time>2009-07-19T20:00:01Z</time>
      </trkpt>
      <trkpt lat="50.766353" lon="6.358460">
        <ele>287.600000</ele>
        <time>2009-07-19T20:00:11Z</time>
      </trkpt>
      <trkpt lat="50.766250" lon="6.358478">
        <ele>287.100000</ele>
        <time>2009-07-19T20:00:20Z</time>
      </trkpt>
      <trkpt lat="50.766117" lon="6.358522">
        <ele>288.100000</ele>
        <time>2009-07-19T20:00:31Z</time>
      </trkpt>
      <trkpt lat="50.766017" lon="6.358532">
        <ele>288.500000</ele>
        <time>2009-07-19T20:00:40Z</time>
      </trkpt>
      <trkpt lat="50.765863" lon="6.358548">
        <ele>288.500000</ele>
        <time>2009-07-19T20:00:53Z</time>
      </trkpt>
      <trkpt lat="50.765787" lon="6.358607">
        <ele>288.500000</ele>
        <time>2009-07-19T20:01:01Z</time>
      </trkpt>
      <trkpt lat="50.765630" lon="6.358742">
        <ele>289.000000</ele>
        <time>2009-07-19T20:01:16Z</time>
      </trkpt>
      <trkpt lat="50.765452" lon="6.358900">
        <ele>289.500000</ele>
        <time>2009-07-19T20:01:34Z</time>
      </trkpt>
      <trkpt lat="50.765327" lon="6.358973">
        <ele>289.000000</ele>
        <time>2009-07-19T20:01:45Z</time>
      </trkpt>
      <trkpt lat="50.765188" lon="6.359043">
        <ele>290.000000</ele>
        <time>2009-07-19T20:01:58Z</time>
      </trkpt>
      <trkpt lat="50.765090" lon="6.359152">
        <ele>290.000000</ele>
        <time>2009-07-19T20:02:08Z</time>
      </trkpt>
      <trkpt lat="50.764912" lon="6.359247">
        <ele>290.500000</ele>
        <time>2009-07-19T20:02:24Z</time>
      </trkpt>
      <trkpt lat="50.764803" lon="6.359337">
        <ele>290.500000</ele>
        <time>2009-07-19T20:02:35Z</time>
      </trkpt>
      <trkpt lat="50.764743" lon="6.359417">
        <ele>291.900000</ele>
        <time>2009-07-19T20:02:42Z</time>
      </trkpt>
      <trkpt lat="50.764587" lon="6.359447">
        <ele>292.900000</ele>
        <time>2009-07-19T20:02:55Z</time>
      </trkpt>
      <trkpt lat="50.764438" lon="6.359553">
        <ele>293.800000</ele>
        <time>2009-07-19T20:03:09Z</time>
      </trkpt>
      <trkpt lat="50.764302" lon="6.359657">
        <ele>294.300000</ele>
        <time>2009-07-19T20:03:22Z</time>
      </trkpt>
      <trkpt lat="50.764162" lon="6.359810">
        <ele>295.700000</ele>
        <time>2009-07-19T20:03:37Z</time>
      </trkpt>
      <trkpt lat="50.763987" lon="6.359880">
        <ele>296.700000</ele>
        <time>2009-07-19T20:03:52Z</time>
      </trkpt>
      <trkpt lat="50.763882" lon="6.359907">
        <ele>298.600000</ele>
        <time>2009-07-19T20:04:02Z</time>
      </trkpt>
      <trkpt lat="50.763850" lon="6.359898">
        <ele>298.600000</ele>
        <time>2009-07-19T20:04:04Z</time>
      </trkpt>
    </trkseg>
  </trk>

</gpx>
